<?xml version="1.0" encoding="UTF-8" standalone="no" ?>
<gpx xmlns="http://www.topografix.com/GPX/1/1" xmlns:xsi="http://www.w3.org/2001/XMLSchema-instance" xsi:schemaLocation="http://www.topografix.com/GPX/1/1 http://www.topografix.com/GPX/1/1/gpx.xsd" version="1.1" creator="VisuGPX - https://www.visugpx.com">
  <metadata>
    <name>78km Tiffauges on GPSies.com</name>
  </metadata>
  <trk>
    <name><![CDATA[78km Tiffauges on GPSies.com]]></name>
    <extensions>
      <line xmlns="http://www.topografix.com/GPX/gpx_style/0/2">
        <color>0000FF</color>
        <width>4</width>
      </line>
    </extensions>
    <trkseg>
      <trkpt lat="46.86502" lon="-1.00499">
        <ele>120</ele>
        <time>2010-01-01T00:00:00Z</time>
      </trkpt>
      <trkpt lat="46.8647" lon="-1.00491">
        <ele>120</ele>
        <time>2010-01-01T00:00:13Z</time>
      </trkpt>
      <trkpt lat="46.8645" lon="-1.00546">
        <ele>122</ele>
        <time>2010-01-01T00:00:30Z</time>
      </trkpt>
      <trkpt lat="46.86383" lon="-1.00568">
        <ele>120</ele>
        <time>2010-01-01T00:00:57Z</time>
      </trkpt>
      <trkpt lat="46.86315" lon="-1.00641">
        <ele>121</ele>
        <time>2010-01-01T00:01:31Z</time>
      </trkpt>
      <trkpt lat="46.86254" lon="-1.00679">
        <ele>118</ele>
        <time>2010-01-01T00:01:58Z</time>
      </trkpt>
      <trkpt lat="46.86216" lon="-1.00686">
        <ele>118</ele>
        <time>2010-01-01T00:02:13Z</time>
      </trkpt>
      <trkpt lat="46.86144" lon="-1.00735">
        <ele>116</ele>
        <time>2010-01-01T00:02:45Z</time>
      </trkpt>
      <trkpt lat="46.86088" lon="-1.00767">
        <ele>116</ele>
        <time>2010-01-01T00:03:09Z</time>
      </trkpt>
      <trkpt lat="46.86026" lon="-1.00849">
        <ele>114</ele>
        <time>2010-01-01T00:03:42Z</time>
      </trkpt>
      <trkpt lat="46.85952" lon="-1.00965">
        <ele>113</ele>
        <time>2010-01-01T00:04:26Z</time>
      </trkpt>
      <trkpt lat="46.85859" lon="-1.00937">
        <ele>114</ele>
        <time>2010-01-01T00:05:04Z</time>
      </trkpt>
      <trkpt lat="46.85845" lon="-1.0094">
        <ele>113</ele>
        <time>2010-01-01T00:05:09Z</time>
      </trkpt>
      <trkpt lat="46.85833" lon="-1.00917">
        <ele>113</ele>
        <time>2010-01-01T00:05:17Z</time>
      </trkpt>
      <trkpt lat="46.8582" lon="-1.00904">
        <ele>113</ele>
        <time>2010-01-01T00:05:24Z</time>
      </trkpt>
      <trkpt lat="46.85688" lon="-1.00825">
        <ele>113</ele>
        <time>2010-01-01T00:06:21Z</time>
      </trkpt>
      <trkpt lat="46.85576" lon="-1.0072">
        <ele>110</ele>
        <time>2010-01-01T00:07:14Z</time>
      </trkpt>
      <trkpt lat="46.85483" lon="-1.00653">
        <ele>109</ele>
        <time>2010-01-01T00:07:55Z</time>
      </trkpt>
      <trkpt lat="46.85372" lon="-1.00599">
        <ele>109</ele>
        <time>2010-01-01T00:08:42Z</time>
      </trkpt>
      <trkpt lat="46.85289" lon="-1.0057">
        <ele>110</ele>
        <time>2010-01-01T00:09:16Z</time>
      </trkpt>
      <trkpt lat="46.85265" lon="-1.00555">
        <ele>111</ele>
        <time>2010-01-01T00:09:27Z</time>
      </trkpt>
      <trkpt lat="46.8508" lon="-1.00423">
        <ele>112</ele>
        <time>2010-01-01T00:10:49Z</time>
      </trkpt>
      <trkpt lat="46.85072" lon="-1.00422">
        <ele>112</ele>
        <time>2010-01-01T00:10:52Z</time>
      </trkpt>
      <trkpt lat="46.85074" lon="-1.00403">
        <ele>112</ele>
        <time>2010-01-01T00:10:58Z</time>
      </trkpt>
      <trkpt lat="46.85068" lon="-1.00381">
        <ele>112</ele>
        <time>2010-01-01T00:11:04Z</time>
      </trkpt>
      <trkpt lat="46.85008" lon="-1.00254">
        <ele>113</ele>
        <time>2010-01-01T00:11:46Z</time>
      </trkpt>
      <trkpt lat="46.84974" lon="-1.00127">
        <ele>114</ele>
        <time>2010-01-01T00:12:24Z</time>
      </trkpt>
      <trkpt lat="46.84966" lon="-1.00086">
        <ele>114</ele>
        <time>2010-01-01T00:12:35Z</time>
      </trkpt>
      <trkpt lat="46.84962" lon="-1.00033">
        <ele>114</ele>
        <time>2010-01-01T00:12:50Z</time>
      </trkpt>
      <trkpt lat="46.84966" lon="-0.99851">
        <ele>117</ele>
        <time>2010-01-01T00:13:40Z</time>
      </trkpt>
      <trkpt lat="46.84956" lon="-0.99811">
        <ele>117</ele>
        <time>2010-01-01T00:13:52Z</time>
      </trkpt>
      <trkpt lat="46.84931" lon="-0.99739">
        <ele>117</ele>
        <time>2010-01-01T00:14:14Z</time>
      </trkpt>
      <trkpt lat="46.84795" lon="-0.99483">
        <ele>119</ele>
        <time>2010-01-01T00:15:42Z</time>
      </trkpt>
      <trkpt lat="46.84726" lon="-0.99407">
        <ele>118</ele>
        <time>2010-01-01T00:16:17Z</time>
      </trkpt>
      <trkpt lat="46.84705" lon="-0.99378">
        <ele>118</ele>
        <time>2010-01-01T00:16:29Z</time>
      </trkpt>
      <trkpt lat="46.8467" lon="-0.99266">
        <ele>119</ele>
        <time>2010-01-01T00:17:02Z</time>
      </trkpt>
      <trkpt lat="46.84653" lon="-0.99193">
        <ele>119</ele>
        <time>2010-01-01T00:17:23Z</time>
      </trkpt>
      <trkpt lat="46.84594" lon="-0.99074">
        <ele>120</ele>
        <time>2010-01-01T00:18:04Z</time>
      </trkpt>
      <trkpt lat="46.84768" lon="-0.9895">
        <ele>123</ele>
        <time>2010-01-01T00:19:21Z</time>
      </trkpt>
      <trkpt lat="46.84855" lon="-0.9891">
        <ele>120</ele>
        <time>2010-01-01T00:19:58Z</time>
      </trkpt>
      <trkpt lat="46.84861" lon="-0.98902">
        <ele>120</ele>
        <time>2010-01-01T00:20:01Z</time>
      </trkpt>
      <trkpt lat="46.84861" lon="-0.98869">
        <ele>120</ele>
        <time>2010-01-01T00:20:10Z</time>
      </trkpt>
      <trkpt lat="46.84857" lon="-0.9883">
        <ele>121</ele>
        <time>2010-01-01T00:20:21Z</time>
      </trkpt>
      <trkpt lat="46.84852" lon="-0.98625">
        <ele>120</ele>
        <time>2010-01-01T00:21:17Z</time>
      </trkpt>
      <trkpt lat="46.84859" lon="-0.98519">
        <ele>120</ele>
        <time>2010-01-01T00:21:46Z</time>
      </trkpt>
      <trkpt lat="46.84942" lon="-0.98548">
        <ele>119</ele>
        <time>2010-01-01T00:22:20Z</time>
      </trkpt>
      <trkpt lat="46.85006" lon="-0.98565">
        <ele>121</ele>
        <time>2010-01-01T00:22:46Z</time>
      </trkpt>
      <trkpt lat="46.85045" lon="-0.9857">
        <ele>120</ele>
        <time>2010-01-01T00:23:02Z</time>
      </trkpt>
      <trkpt lat="46.85096" lon="-0.98562">
        <ele>120</ele>
        <time>2010-01-01T00:23:22Z</time>
      </trkpt>
      <trkpt lat="46.85122" lon="-0.9855">
        <ele>121</ele>
        <time>2010-01-01T00:23:33Z</time>
      </trkpt>
      <trkpt lat="46.85155" lon="-0.98525">
        <ele>120</ele>
        <time>2010-01-01T00:23:48Z</time>
      </trkpt>
      <trkpt lat="46.85178" lon="-0.98497">
        <ele>119</ele>
        <time>2010-01-01T00:24:00Z</time>
      </trkpt>
      <trkpt lat="46.85204" lon="-0.98451">
        <ele>120</ele>
        <time>2010-01-01T00:24:17Z</time>
      </trkpt>
      <trkpt lat="46.85248" lon="-0.98326">
        <ele>124</ele>
        <time>2010-01-01T00:24:55Z</time>
      </trkpt>
      <trkpt lat="46.85286" lon="-0.98248">
        <ele>124</ele>
        <time>2010-01-01T00:25:21Z</time>
      </trkpt>
      <trkpt lat="46.85303" lon="-0.98221">
        <ele>125</ele>
        <time>2010-01-01T00:25:31Z</time>
      </trkpt>
      <trkpt lat="46.85333" lon="-0.98179">
        <ele>126</ele>
        <time>2010-01-01T00:25:48Z</time>
      </trkpt>
      <trkpt lat="46.85408" lon="-0.98101">
        <ele>128</ele>
        <time>2010-01-01T00:26:25Z</time>
      </trkpt>
      <trkpt lat="46.85532" lon="-0.9796">
        <ele>125</ele>
        <time>2010-01-01T00:27:28Z</time>
      </trkpt>
      <trkpt lat="46.85688" lon="-0.97742">
        <ele>127</ele>
        <time>2010-01-01T00:28:54Z</time>
      </trkpt>
      <trkpt lat="46.85955" lon="-0.9751">
        <ele>132</ele>
        <time>2010-01-01T00:30:58Z</time>
      </trkpt>
      <trkpt lat="46.86026" lon="-0.97428">
        <ele>134</ele>
        <time>2010-01-01T00:31:35Z</time>
      </trkpt>
      <trkpt lat="46.86121" lon="-0.97331">
        <ele>133</ele>
        <time>2010-01-01T00:32:21Z</time>
      </trkpt>
      <trkpt lat="46.86249" lon="-0.97177">
        <ele>137</ele>
        <time>2010-01-01T00:33:27Z</time>
      </trkpt>
      <trkpt lat="46.86288" lon="-0.97147">
        <ele>140</ele>
        <time>2010-01-01T00:33:45Z</time>
      </trkpt>
      <trkpt lat="46.86307" lon="-0.97138">
        <ele>141</ele>
        <time>2010-01-01T00:33:53Z</time>
      </trkpt>
      <trkpt lat="46.86357" lon="-0.97135">
        <ele>141</ele>
        <time>2010-01-01T00:34:13Z</time>
      </trkpt>
      <trkpt lat="46.86449" lon="-0.97045">
        <ele>143</ele>
        <time>2010-01-01T00:34:57Z</time>
      </trkpt>
      <trkpt lat="46.86538" lon="-0.96965">
        <ele>147</ele>
        <time>2010-01-01T00:35:39Z</time>
      </trkpt>
      <trkpt lat="46.86572" lon="-0.96914">
        <ele>147</ele>
        <time>2010-01-01T00:35:59Z</time>
      </trkpt>
      <trkpt lat="46.86638" lon="-0.96859">
        <ele>141</ele>
        <time>2010-01-01T00:36:29Z</time>
      </trkpt>
      <trkpt lat="46.8668" lon="-0.96811">
        <ele>138</ele>
        <time>2010-01-01T00:36:50Z</time>
      </trkpt>
      <trkpt lat="46.86708" lon="-0.96787">
        <ele>137</ele>
        <time>2010-01-01T00:37:03Z</time>
      </trkpt>
      <trkpt lat="46.86755" lon="-0.96766">
        <ele>136</ele>
        <time>2010-01-01T00:37:23Z</time>
      </trkpt>
      <trkpt lat="46.86837" lon="-0.96754">
        <ele>138</ele>
        <time>2010-01-01T00:37:56Z</time>
      </trkpt>
      <trkpt lat="46.86931" lon="-0.96692">
        <ele>142</ele>
        <time>2010-01-01T00:38:37Z</time>
      </trkpt>
      <trkpt lat="46.86947" lon="-0.96686">
        <ele>143</ele>
        <time>2010-01-01T00:38:44Z</time>
      </trkpt>
      <trkpt lat="46.8699" lon="-0.96682">
        <ele>144</ele>
        <time>2010-01-01T00:39:01Z</time>
      </trkpt>
      <trkpt lat="46.87018" lon="-0.96701">
        <ele>144</ele>
        <time>2010-01-01T00:39:13Z</time>
      </trkpt>
      <trkpt lat="46.87033" lon="-0.96625">
        <ele>143</ele>
        <time>2010-01-01T00:39:35Z</time>
      </trkpt>
      <trkpt lat="46.87062" lon="-0.96525">
        <ele>143</ele>
        <time>2010-01-01T00:40:05Z</time>
      </trkpt>
      <trkpt lat="46.87134" lon="-0.96342">
        <ele>142</ele>
        <time>2010-01-01T00:41:03Z</time>
      </trkpt>
      <trkpt lat="46.8726" lon="-0.9601">
        <ele>149</ele>
        <time>2010-01-01T00:42:47Z</time>
      </trkpt>
      <trkpt lat="46.87293" lon="-0.95768">
        <ele>149</ele>
        <time>2010-01-01T00:43:54Z</time>
      </trkpt>
      <trkpt lat="46.87312" lon="-0.95553">
        <ele>152</ele>
        <time>2010-01-01T00:44:53Z</time>
      </trkpt>
      <trkpt lat="46.87313" lon="-0.95463">
        <ele>154</ele>
        <time>2010-01-01T00:45:18Z</time>
      </trkpt>
      <trkpt lat="46.87298" lon="-0.95375">
        <ele>153</ele>
        <time>2010-01-01T00:45:43Z</time>
      </trkpt>
      <trkpt lat="46.87247" lon="-0.95236">
        <ele>147</ele>
        <time>2010-01-01T00:46:26Z</time>
      </trkpt>
      <trkpt lat="46.87204" lon="-0.95103">
        <ele>143</ele>
        <time>2010-01-01T00:47:06Z</time>
      </trkpt>
      <trkpt lat="46.87199" lon="-0.94952">
        <ele>135</ele>
        <time>2010-01-01T00:47:48Z</time>
      </trkpt>
      <trkpt lat="46.87228" lon="-0.9475">
        <ele>128</ele>
        <time>2010-01-01T00:48:44Z</time>
      </trkpt>
      <trkpt lat="46.87285" lon="-0.9445">
        <ele>129</ele>
        <time>2010-01-01T00:50:09Z</time>
      </trkpt>
      <trkpt lat="46.87198" lon="-0.94375">
        <ele>127</ele>
        <time>2010-01-01T00:50:50Z</time>
      </trkpt>
      <trkpt lat="46.8713" lon="-0.94289">
        <ele>123</ele>
        <time>2010-01-01T00:51:26Z</time>
      </trkpt>
      <trkpt lat="46.86976" lon="-0.9401">
        <ele>129</ele>
        <time>2010-01-01T00:53:04Z</time>
      </trkpt>
      <trkpt lat="46.86941" lon="-0.93899">
        <ele>126</ele>
        <time>2010-01-01T00:53:37Z</time>
      </trkpt>
      <trkpt lat="46.8693" lon="-0.93814">
        <ele>127</ele>
        <time>2010-01-01T00:54:01Z</time>
      </trkpt>
      <trkpt lat="46.86889" lon="-0.93547">
        <ele>124</ele>
        <time>2010-01-01T00:55:16Z</time>
      </trkpt>
      <trkpt lat="46.86866" lon="-0.93405">
        <ele>128</ele>
        <time>2010-01-01T00:55:56Z</time>
      </trkpt>
      <trkpt lat="46.86885" lon="-0.93209">
        <ele>133</ele>
        <time>2010-01-01T00:56:50Z</time>
      </trkpt>
      <trkpt lat="46.86889" lon="-0.93072">
        <ele>130</ele>
        <time>2010-01-01T00:57:28Z</time>
      </trkpt>
      <trkpt lat="46.86885" lon="-0.92939">
        <ele>125</ele>
        <time>2010-01-01T00:58:04Z</time>
      </trkpt>
      <trkpt lat="46.86874" lon="-0.92867">
        <ele>126</ele>
        <time>2010-01-01T00:58:24Z</time>
      </trkpt>
      <trkpt lat="46.86801" lon="-0.92896">
        <ele>125</ele>
        <time>2010-01-01T00:58:55Z</time>
      </trkpt>
      <trkpt lat="46.86745" lon="-0.929">
        <ele>127</ele>
        <time>2010-01-01T00:59:17Z</time>
      </trkpt>
      <trkpt lat="46.86669" lon="-0.92883">
        <ele>127</ele>
        <time>2010-01-01T00:59:48Z</time>
      </trkpt>
      <trkpt lat="46.8659" lon="-0.92861">
        <ele>124</ele>
        <time>2010-01-01T01:00:20Z</time>
      </trkpt>
      <trkpt lat="46.86514" lon="-0.92884">
        <ele>123</ele>
        <time>2010-01-01T01:00:51Z</time>
      </trkpt>
      <trkpt lat="46.86408" lon="-0.92857">
        <ele>129</ele>
        <time>2010-01-01T01:01:34Z</time>
      </trkpt>
      <trkpt lat="46.86318" lon="-0.92801">
        <ele>133</ele>
        <time>2010-01-01T01:02:13Z</time>
      </trkpt>
      <trkpt lat="46.86274" lon="-0.92753">
        <ele>136</ele>
        <time>2010-01-01T01:02:35Z</time>
      </trkpt>
      <trkpt lat="46.86269" lon="-0.92728">
        <ele>137</ele>
        <time>2010-01-01T01:02:42Z</time>
      </trkpt>
      <trkpt lat="46.86266" lon="-0.9269">
        <ele>138</ele>
        <time>2010-01-01T01:02:53Z</time>
      </trkpt>
      <trkpt lat="46.86258" lon="-0.92626">
        <ele>140</ele>
        <time>2010-01-01T01:03:11Z</time>
      </trkpt>
      <trkpt lat="46.86247" lon="-0.9258">
        <ele>142</ele>
        <time>2010-01-01T01:03:24Z</time>
      </trkpt>
      <trkpt lat="46.86198" lon="-0.92536">
        <ele>143</ele>
        <time>2010-01-01T01:03:47Z</time>
      </trkpt>
      <trkpt lat="46.8615" lon="-0.92503">
        <ele>144</ele>
        <time>2010-01-01T01:04:08Z</time>
      </trkpt>
      <trkpt lat="46.86186" lon="-0.92452">
        <ele>144</ele>
        <time>2010-01-01T01:04:28Z</time>
      </trkpt>
      <trkpt lat="46.86231" lon="-0.92421">
        <ele>144</ele>
        <time>2010-01-01T01:04:48Z</time>
      </trkpt>
      <trkpt lat="46.86214" lon="-0.9237">
        <ele>143</ele>
        <time>2010-01-01T01:05:04Z</time>
      </trkpt>
      <trkpt lat="46.86161" lon="-0.92304">
        <ele>142</ele>
        <time>2010-01-01T01:05:32Z</time>
      </trkpt>
      <trkpt lat="46.86155" lon="-0.92289">
        <ele>142</ele>
        <time>2010-01-01T01:05:36Z</time>
      </trkpt>
      <trkpt lat="46.86171" lon="-0.9226">
        <ele>143</ele>
        <time>2010-01-01T01:05:47Z</time>
      </trkpt>
      <trkpt lat="46.86188" lon="-0.92212">
        <ele>143</ele>
        <time>2010-01-01T01:06:01Z</time>
      </trkpt>
      <trkpt lat="46.86204" lon="-0.92086">
        <ele>146</ele>
        <time>2010-01-01T01:06:37Z</time>
      </trkpt>
      <trkpt lat="46.86219" lon="-0.92044">
        <ele>146</ele>
        <time>2010-01-01T01:06:49Z</time>
      </trkpt>
      <trkpt lat="46.86268" lon="-0.91947">
        <ele>152</ele>
        <time>2010-01-01T01:07:22Z</time>
      </trkpt>
      <trkpt lat="46.8629" lon="-0.9188">
        <ele>158</ele>
        <time>2010-01-01T01:07:43Z</time>
      </trkpt>
      <trkpt lat="46.86293" lon="-0.91833">
        <ele>161</ele>
        <time>2010-01-01T01:07:56Z</time>
      </trkpt>
      <trkpt lat="46.86288" lon="-0.91769">
        <ele>160</ele>
        <time>2010-01-01T01:08:13Z</time>
      </trkpt>
      <trkpt lat="46.86271" lon="-0.91624">
        <ele>161</ele>
        <time>2010-01-01T01:08:54Z</time>
      </trkpt>
      <trkpt lat="46.86268" lon="-0.91537">
        <ele>164</ele>
        <time>2010-01-01T01:09:17Z</time>
      </trkpt>
      <trkpt lat="46.86249" lon="-0.91474">
        <ele>165</ele>
        <time>2010-01-01T01:09:36Z</time>
      </trkpt>
      <trkpt lat="46.86245" lon="-0.91457">
        <ele>167</ele>
        <time>2010-01-01T01:09:41Z</time>
      </trkpt>
      <trkpt lat="46.86246" lon="-0.91444">
        <ele>168</ele>
        <time>2010-01-01T01:09:45Z</time>
      </trkpt>
      <trkpt lat="46.86265" lon="-0.91422">
        <ele>170</ele>
        <time>2010-01-01T01:09:55Z</time>
      </trkpt>
      <trkpt lat="46.86325" lon="-0.9137">
        <ele>173</ele>
        <time>2010-01-01T01:10:22Z</time>
      </trkpt>
      <trkpt lat="46.86415" lon="-0.91326">
        <ele>175</ele>
        <time>2010-01-01T01:11:00Z</time>
      </trkpt>
      <trkpt lat="46.86452" lon="-0.913">
        <ele>174</ele>
        <time>2010-01-01T01:11:17Z</time>
      </trkpt>
      <trkpt lat="46.86522" lon="-0.91211">
        <ele>181</ele>
        <time>2010-01-01T01:11:54Z</time>
      </trkpt>
      <trkpt lat="46.86531" lon="-0.91132">
        <ele>183</ele>
        <time>2010-01-01T01:12:16Z</time>
      </trkpt>
      <trkpt lat="46.86617" lon="-0.91104">
        <ele>182</ele>
        <time>2010-01-01T01:12:51Z</time>
      </trkpt>
      <trkpt lat="46.86626" lon="-0.91114">
        <ele>181</ele>
        <time>2010-01-01T01:12:56Z</time>
      </trkpt>
      <trkpt lat="46.86649" lon="-0.91196">
        <ele>177</ele>
        <time>2010-01-01T01:13:20Z</time>
      </trkpt>
      <trkpt lat="46.86656" lon="-0.91208">
        <ele>177</ele>
        <time>2010-01-01T01:13:24Z</time>
      </trkpt>
      <trkpt lat="46.86666" lon="-0.91213">
        <ele>177</ele>
        <time>2010-01-01T01:13:29Z</time>
      </trkpt>
      <trkpt lat="46.86722" lon="-0.91202">
        <ele>178</ele>
        <time>2010-01-01T01:13:51Z</time>
      </trkpt>
      <trkpt lat="46.86805" lon="-0.91214">
        <ele>181</ele>
        <time>2010-01-01T01:14:25Z</time>
      </trkpt>
      <trkpt lat="46.8684" lon="-0.91217">
        <ele>182</ele>
        <time>2010-01-01T01:14:39Z</time>
      </trkpt>
      <trkpt lat="46.86876" lon="-0.91247">
        <ele>179</ele>
        <time>2010-01-01T01:14:55Z</time>
      </trkpt>
      <trkpt lat="46.87108" lon="-0.90898">
        <ele>180</ele>
        <time>2010-01-01T01:17:08Z</time>
      </trkpt>
      <trkpt lat="46.8715" lon="-0.90825">
        <ele>179</ele>
        <time>2010-01-01T01:17:34Z</time>
      </trkpt>
      <trkpt lat="46.87191" lon="-0.90743">
        <ele>180</ele>
        <time>2010-01-01T01:18:02Z</time>
      </trkpt>
      <trkpt lat="46.87231" lon="-0.90638">
        <ele>182</ele>
        <time>2010-01-01T01:18:35Z</time>
      </trkpt>
      <trkpt lat="46.87258" lon="-0.90554">
        <ele>183</ele>
        <time>2010-01-01T01:19:01Z</time>
      </trkpt>
      <trkpt lat="46.87267" lon="-0.90511">
        <ele>185</ele>
        <time>2010-01-01T01:19:13Z</time>
      </trkpt>
      <trkpt lat="46.87266" lon="-0.9048">
        <ele>185</ele>
        <time>2010-01-01T01:19:21Z</time>
      </trkpt>
      <trkpt lat="46.87256" lon="-0.9045">
        <ele>185</ele>
        <time>2010-01-01T01:19:31Z</time>
      </trkpt>
      <trkpt lat="46.87259" lon="-0.90431">
        <ele>185</ele>
        <time>2010-01-01T01:19:36Z</time>
      </trkpt>
      <trkpt lat="46.87267" lon="-0.9042">
        <ele>184</ele>
        <time>2010-01-01T01:19:40Z</time>
      </trkpt>
      <trkpt lat="46.87277" lon="-0.90415">
        <ele>184</ele>
        <time>2010-01-01T01:19:44Z</time>
      </trkpt>
      <trkpt lat="46.87293" lon="-0.90421">
        <ele>184</ele>
        <time>2010-01-01T01:19:51Z</time>
      </trkpt>
      <trkpt lat="46.87304" lon="-0.90425">
        <ele>184</ele>
        <time>2010-01-01T01:19:56Z</time>
      </trkpt>
      <trkpt lat="46.87345" lon="-0.90386">
        <ele>185</ele>
        <time>2010-01-01T01:20:15Z</time>
      </trkpt>
      <trkpt lat="46.87467" lon="-0.90257">
        <ele>185</ele>
        <time>2010-01-01T01:21:15Z</time>
      </trkpt>
      <trkpt lat="46.87586" lon="-0.9018">
        <ele>184</ele>
        <time>2010-01-01T01:22:07Z</time>
      </trkpt>
      <trkpt lat="46.87668" lon="-0.9036">
        <ele>182</ele>
        <time>2010-01-01T01:23:07Z</time>
      </trkpt>
      <trkpt lat="46.87768" lon="-0.90579">
        <ele>179</ele>
        <time>2010-01-01T01:24:19Z</time>
      </trkpt>
      <trkpt lat="46.87823" lon="-0.90654">
        <ele>177</ele>
        <time>2010-01-01T01:24:49Z</time>
      </trkpt>
      <trkpt lat="46.87925" lon="-0.90674">
        <ele>180</ele>
        <time>2010-01-01T01:25:30Z</time>
      </trkpt>
      <trkpt lat="46.87944" lon="-0.90663">
        <ele>181</ele>
        <time>2010-01-01T01:25:38Z</time>
      </trkpt>
      <trkpt lat="46.88011" lon="-0.90667">
        <ele>183</ele>
        <time>2010-01-01T01:26:05Z</time>
      </trkpt>
      <trkpt lat="46.88132" lon="-0.90592">
        <ele>189</ele>
        <time>2010-01-01T01:26:57Z</time>
      </trkpt>
      <trkpt lat="46.8814" lon="-0.90579">
        <ele>189</ele>
        <time>2010-01-01T01:27:02Z</time>
      </trkpt>
      <trkpt lat="46.88152" lon="-0.90577">
        <ele>190</ele>
        <time>2010-01-01T01:27:07Z</time>
      </trkpt>
      <trkpt lat="46.88173" lon="-0.9062">
        <ele>194</ele>
        <time>2010-01-01T01:27:21Z</time>
      </trkpt>
      <trkpt lat="46.88186" lon="-0.9071">
        <ele>196</ele>
        <time>2010-01-01T01:27:47Z</time>
      </trkpt>
      <trkpt lat="46.88196" lon="-0.90884">
        <ele>197</ele>
        <time>2010-01-01T01:28:34Z</time>
      </trkpt>
      <trkpt lat="46.882" lon="-0.90963">
        <ele>200</ele>
        <time>2010-01-01T01:28:56Z</time>
      </trkpt>
      <trkpt lat="46.88253" lon="-0.90974">
        <ele>202</ele>
        <time>2010-01-01T01:29:18Z</time>
      </trkpt>
      <trkpt lat="46.8829" lon="-0.90991">
        <ele>203</ele>
        <time>2010-01-01T01:29:33Z</time>
      </trkpt>
      <trkpt lat="46.8831" lon="-0.91008">
        <ele>204</ele>
        <time>2010-01-01T01:29:42Z</time>
      </trkpt>
      <trkpt lat="46.88328" lon="-0.91011">
        <ele>204</ele>
        <time>2010-01-01T01:29:49Z</time>
      </trkpt>
      <trkpt lat="46.8834" lon="-0.91051">
        <ele>206</ele>
        <time>2010-01-01T01:30:02Z</time>
      </trkpt>
      <trkpt lat="46.88428" lon="-0.91094">
        <ele>206</ele>
        <time>2010-01-01T01:30:39Z</time>
      </trkpt>
      <trkpt lat="46.88509" lon="-0.91155">
        <ele>200</ele>
        <time>2010-01-01T01:31:15Z</time>
      </trkpt>
      <trkpt lat="46.88601" lon="-0.91255">
        <ele>205</ele>
        <time>2010-01-01T01:32:01Z</time>
      </trkpt>
      <trkpt lat="46.88768" lon="-0.91499">
        <ele>221</ele>
        <time>2010-01-01T01:33:36Z</time>
      </trkpt>
      <trkpt lat="46.88818" lon="-0.91552">
        <ele>223</ele>
        <time>2010-01-01T01:34:00Z</time>
      </trkpt>
      <trkpt lat="46.88893" lon="-0.91619">
        <ele>220</ele>
        <time>2010-01-01T01:34:36Z</time>
      </trkpt>
      <trkpt lat="46.88925" lon="-0.91657">
        <ele>221</ele>
        <time>2010-01-01T01:34:52Z</time>
      </trkpt>
      <trkpt lat="46.88971" lon="-0.91743">
        <ele>216</ele>
        <time>2010-01-01T01:35:22Z</time>
      </trkpt>
      <trkpt lat="46.89075" lon="-0.92069">
        <ele>219</ele>
        <time>2010-01-01T01:37:00Z</time>
      </trkpt>
      <trkpt lat="46.89084" lon="-0.92089">
        <ele>219</ele>
        <time>2010-01-01T01:37:07Z</time>
      </trkpt>
      <trkpt lat="46.89126" lon="-0.92157">
        <ele>218</ele>
        <time>2010-01-01T01:37:32Z</time>
      </trkpt>
      <trkpt lat="46.89272" lon="-0.92363">
        <ele>216</ele>
        <time>2010-01-01T01:38:53Z</time>
      </trkpt>
      <trkpt lat="46.89317" lon="-0.92438">
        <ele>212</ele>
        <time>2010-01-01T01:39:20Z</time>
      </trkpt>
      <trkpt lat="46.89361" lon="-0.92494">
        <ele>211</ele>
        <time>2010-01-01T01:39:44Z</time>
      </trkpt>
      <trkpt lat="46.89388" lon="-0.92524">
        <ele>210</ele>
        <time>2010-01-01T01:39:57Z</time>
      </trkpt>
      <trkpt lat="46.89423" lon="-0.92554">
        <ele>210</ele>
        <time>2010-01-01T01:40:14Z</time>
      </trkpt>
      <trkpt lat="46.89464" lon="-0.9258">
        <ele>211</ele>
        <time>2010-01-01T01:40:31Z</time>
      </trkpt>
      <trkpt lat="46.89491" lon="-0.92594">
        <ele>212</ele>
        <time>2010-01-01T01:40:43Z</time>
      </trkpt>
      <trkpt lat="46.89685" lon="-0.92667">
        <ele>213</ele>
        <time>2010-01-01T01:42:03Z</time>
      </trkpt>
      <trkpt lat="46.89764" lon="-0.92713">
        <ele>215</ele>
        <time>2010-01-01T01:42:37Z</time>
      </trkpt>
      <trkpt lat="46.89795" lon="-0.92737">
        <ele>217</ele>
        <time>2010-01-01T01:42:51Z</time>
      </trkpt>
      <trkpt lat="46.89818" lon="-0.92762">
        <ele>218</ele>
        <time>2010-01-01T01:43:03Z</time>
      </trkpt>
      <trkpt lat="46.89861" lon="-0.92827">
        <ele>223</ele>
        <time>2010-01-01T01:43:27Z</time>
      </trkpt>
      <trkpt lat="46.89867" lon="-0.92828">
        <ele>223</ele>
        <time>2010-01-01T01:43:30Z</time>
      </trkpt>
      <trkpt lat="46.89893" lon="-0.9288">
        <ele>224</ele>
        <time>2010-01-01T01:43:47Z</time>
      </trkpt>
      <trkpt lat="46.89955" lon="-0.92956">
        <ele>228</ele>
        <time>2010-01-01T01:44:20Z</time>
      </trkpt>
      <trkpt lat="46.89967" lon="-0.92976">
        <ele>229</ele>
        <time>2010-01-01T01:44:27Z</time>
      </trkpt>
      <trkpt lat="46.8998" lon="-0.93031">
        <ele>230</ele>
        <time>2010-01-01T01:44:43Z</time>
      </trkpt>
      <trkpt lat="46.9001" lon="-0.93071">
        <ele>232</ele>
        <time>2010-01-01T01:44:59Z</time>
      </trkpt>
      <trkpt lat="46.90121" lon="-0.93134">
        <ele>233</ele>
        <time>2010-01-01T01:45:47Z</time>
      </trkpt>
      <trkpt lat="46.90261" lon="-0.93164">
        <ele>237</ele>
        <time>2010-01-01T01:46:44Z</time>
      </trkpt>
      <trkpt lat="46.9031" lon="-0.9317">
        <ele>238</ele>
        <time>2010-01-01T01:47:03Z</time>
      </trkpt>
      <trkpt lat="46.90334" lon="-0.9317">
        <ele>238</ele>
        <time>2010-01-01T01:47:13Z</time>
      </trkpt>
      <trkpt lat="46.9038" lon="-0.93158">
        <ele>238</ele>
        <time>2010-01-01T01:47:32Z</time>
      </trkpt>
      <trkpt lat="46.90474" lon="-0.93124">
        <ele>235</ele>
        <time>2010-01-01T01:48:10Z</time>
      </trkpt>
      <trkpt lat="46.90502" lon="-0.93106">
        <ele>233</ele>
        <time>2010-01-01T01:48:23Z</time>
      </trkpt>
      <trkpt lat="46.90523" lon="-0.93066">
        <ele>230</ele>
        <time>2010-01-01T01:48:36Z</time>
      </trkpt>
      <trkpt lat="46.90565" lon="-0.92955">
        <ele>223</ele>
        <time>2010-01-01T01:49:11Z</time>
      </trkpt>
      <trkpt lat="46.90591" lon="-0.9293">
        <ele>221</ele>
        <time>2010-01-01T01:49:24Z</time>
      </trkpt>
      <trkpt lat="46.90629" lon="-0.92916">
        <ele>220</ele>
        <time>2010-01-01T01:49:39Z</time>
      </trkpt>
      <trkpt lat="46.90649" lon="-0.92899">
        <ele>216</ele>
        <time>2010-01-01T01:49:48Z</time>
      </trkpt>
      <trkpt lat="46.90717" lon="-0.92776">
        <ele>210</ele>
        <time>2010-01-01T01:50:32Z</time>
      </trkpt>
      <trkpt lat="46.90755" lon="-0.9273">
        <ele>211</ele>
        <time>2010-01-01T01:50:51Z</time>
      </trkpt>
      <trkpt lat="46.90778" lon="-0.9272">
        <ele>212</ele>
        <time>2010-01-01T01:51:01Z</time>
      </trkpt>
      <trkpt lat="46.90856" lon="-0.92711">
        <ele>211</ele>
        <time>2010-01-01T01:51:32Z</time>
      </trkpt>
      <trkpt lat="46.90972" lon="-0.92681">
        <ele>210</ele>
        <time>2010-01-01T01:52:20Z</time>
      </trkpt>
      <trkpt lat="46.90999" lon="-0.92678">
        <ele>210</ele>
        <time>2010-01-01T01:52:30Z</time>
      </trkpt>
      <trkpt lat="46.91031" lon="-0.92684">
        <ele>211</ele>
        <time>2010-01-01T01:52:43Z</time>
      </trkpt>
      <trkpt lat="46.91073" lon="-0.92711">
        <ele>213</ele>
        <time>2010-01-01T01:53:02Z</time>
      </trkpt>
      <trkpt lat="46.91191" lon="-0.92865">
        <ele>218</ele>
        <time>2010-01-01T01:54:05Z</time>
      </trkpt>
      <trkpt lat="46.91256" lon="-0.92987">
        <ele>216</ele>
        <time>2010-01-01T01:54:47Z</time>
      </trkpt>
      <trkpt lat="46.91269" lon="-0.93007">
        <ele>216</ele>
        <time>2010-01-01T01:54:55Z</time>
      </trkpt>
      <trkpt lat="46.9129" lon="-0.93025">
        <ele>215</ele>
        <time>2010-01-01T01:55:05Z</time>
      </trkpt>
      <trkpt lat="46.91347" lon="-0.93052">
        <ele>213</ele>
        <time>2010-01-01T01:55:29Z</time>
      </trkpt>
      <trkpt lat="46.91381" lon="-0.93059">
        <ele>211</ele>
        <time>2010-01-01T01:55:42Z</time>
      </trkpt>
      <trkpt lat="46.91417" lon="-0.93052">
        <ele>210</ele>
        <time>2010-01-01T01:55:57Z</time>
      </trkpt>
      <trkpt lat="46.91444" lon="-0.93036">
        <ele>210</ele>
        <time>2010-01-01T01:56:08Z</time>
      </trkpt>
      <trkpt lat="46.9161" lon="-0.92898">
        <ele>211</ele>
        <time>2010-01-01T01:57:25Z</time>
      </trkpt>
      <trkpt lat="46.91658" lon="-0.92849">
        <ele>207</ele>
        <time>2010-01-01T01:57:48Z</time>
      </trkpt>
      <trkpt lat="46.91675" lon="-0.92821">
        <ele>206</ele>
        <time>2010-01-01T01:57:59Z</time>
      </trkpt>
      <trkpt lat="46.91695" lon="-0.9277">
        <ele>205</ele>
        <time>2010-01-01T01:58:15Z</time>
      </trkpt>
      <trkpt lat="46.91703" lon="-0.9273">
        <ele>204</ele>
        <time>2010-01-01T01:58:26Z</time>
      </trkpt>
      <trkpt lat="46.91703" lon="-0.92517">
        <ele>201</ele>
        <time>2010-01-01T01:59:24Z</time>
      </trkpt>
      <trkpt lat="46.91707" lon="-0.92476">
        <ele>201</ele>
        <time>2010-01-01T01:59:36Z</time>
      </trkpt>
      <trkpt lat="46.91717" lon="-0.92429">
        <ele>200</ele>
        <time>2010-01-01T01:59:49Z</time>
      </trkpt>
      <trkpt lat="46.91749" lon="-0.92354">
        <ele>197</ele>
        <time>2010-01-01T02:00:13Z</time>
      </trkpt>
      <trkpt lat="46.91791" lon="-0.92287">
        <ele>198</ele>
        <time>2010-01-01T02:00:38Z</time>
      </trkpt>
      <trkpt lat="46.91887" lon="-0.92165">
        <ele>197</ele>
        <time>2010-01-01T02:01:29Z</time>
      </trkpt>
      <trkpt lat="46.91909" lon="-0.9212">
        <ele>196</ele>
        <time>2010-01-01T02:01:44Z</time>
      </trkpt>
      <trkpt lat="46.91939" lon="-0.92028">
        <ele>197</ele>
        <time>2010-01-01T02:02:12Z</time>
      </trkpt>
      <trkpt lat="46.91965" lon="-0.91828">
        <ele>196</ele>
        <time>2010-01-01T02:03:08Z</time>
      </trkpt>
      <trkpt lat="46.91992" lon="-0.91753">
        <ele>197</ele>
        <time>2010-01-01T02:03:31Z</time>
      </trkpt>
      <trkpt lat="46.9202" lon="-0.9171">
        <ele>196</ele>
        <time>2010-01-01T02:03:47Z</time>
      </trkpt>
      <trkpt lat="46.92118" lon="-0.91606">
        <ele>193</ele>
        <time>2010-01-01T02:04:36Z</time>
      </trkpt>
      <trkpt lat="46.9221" lon="-0.91535">
        <ele>190</ele>
        <time>2010-01-01T02:05:17Z</time>
      </trkpt>
      <trkpt lat="46.9232" lon="-0.91428">
        <ele>192</ele>
        <time>2010-01-01T02:06:10Z</time>
      </trkpt>
      <trkpt lat="46.92351" lon="-0.91384">
        <ele>194</ele>
        <time>2010-01-01T02:06:27Z</time>
      </trkpt>
      <trkpt lat="46.924" lon="-0.91302">
        <ele>194</ele>
        <time>2010-01-01T02:06:57Z</time>
      </trkpt>
      <trkpt lat="46.92465" lon="-0.91218">
        <ele>194</ele>
        <time>2010-01-01T02:07:32Z</time>
      </trkpt>
      <trkpt lat="46.92503" lon="-0.9119">
        <ele>194</ele>
        <time>2010-01-01T02:07:49Z</time>
      </trkpt>
      <trkpt lat="46.92564" lon="-0.9116">
        <ele>194</ele>
        <time>2010-01-01T02:08:15Z</time>
      </trkpt>
      <trkpt lat="46.92678" lon="-0.91132">
        <ele>198</ele>
        <time>2010-01-01T02:09:01Z</time>
      </trkpt>
      <trkpt lat="46.92681" lon="-0.91151">
        <ele>198</ele>
        <time>2010-01-01T02:09:06Z</time>
      </trkpt>
      <trkpt lat="46.92689" lon="-0.91168">
        <ele>198</ele>
        <time>2010-01-01T02:09:12Z</time>
      </trkpt>
      <trkpt lat="46.92784" lon="-0.91294">
        <ele>196</ele>
        <time>2010-01-01T02:10:03Z</time>
      </trkpt>
      <trkpt lat="46.92828" lon="-0.91407">
        <ele>196</ele>
        <time>2010-01-01T02:10:39Z</time>
      </trkpt>
      <trkpt lat="46.92867" lon="-0.91462">
        <ele>193</ele>
        <time>2010-01-01T02:11:00Z</time>
      </trkpt>
      <trkpt lat="46.92919" lon="-0.91564">
        <ele>189</ele>
        <time>2010-01-01T02:11:35Z</time>
      </trkpt>
      <trkpt lat="46.93051" lon="-0.91707">
        <ele>186</ele>
        <time>2010-01-01T02:12:41Z</time>
      </trkpt>
      <trkpt lat="46.93102" lon="-0.91797">
        <ele>188</ele>
        <time>2010-01-01T02:13:13Z</time>
      </trkpt>
      <trkpt lat="46.93202" lon="-0.92043">
        <ele>178</ele>
        <time>2010-01-01T02:14:31Z</time>
      </trkpt>
      <trkpt lat="46.93208" lon="-0.92078">
        <ele>176</ele>
        <time>2010-01-01T02:14:41Z</time>
      </trkpt>
      <trkpt lat="46.93206" lon="-0.92179">
        <ele>172</ele>
        <time>2010-01-01T02:15:09Z</time>
      </trkpt>
      <trkpt lat="46.93217" lon="-0.92232">
        <ele>174</ele>
        <time>2010-01-01T02:15:24Z</time>
      </trkpt>
      <trkpt lat="46.9326" lon="-0.92328">
        <ele>179</ele>
        <time>2010-01-01T02:15:55Z</time>
      </trkpt>
      <trkpt lat="46.93485" lon="-0.92772">
        <ele>173</ele>
        <time>2010-01-01T02:18:26Z</time>
      </trkpt>
      <trkpt lat="46.93552" lon="-0.92897">
        <ele>177</ele>
        <time>2010-01-01T02:19:10Z</time>
      </trkpt>
      <trkpt lat="46.93568" lon="-0.92938">
        <ele>176</ele>
        <time>2010-01-01T02:19:23Z</time>
      </trkpt>
      <trkpt lat="46.93623" lon="-0.93113">
        <ele>179</ele>
        <time>2010-01-01T02:20:15Z</time>
      </trkpt>
      <trkpt lat="46.93643" lon="-0.93157">
        <ele>181</ele>
        <time>2010-01-01T02:20:30Z</time>
      </trkpt>
      <trkpt lat="46.93674" lon="-0.93193">
        <ele>180</ele>
        <time>2010-01-01T02:20:46Z</time>
      </trkpt>
      <trkpt lat="46.93718" lon="-0.93207">
        <ele>181</ele>
        <time>2010-01-01T02:21:04Z</time>
      </trkpt>
      <trkpt lat="46.93755" lon="-0.93233">
        <ele>183</ele>
        <time>2010-01-01T02:21:20Z</time>
      </trkpt>
      <trkpt lat="46.93778" lon="-0.93275">
        <ele>183</ele>
        <time>2010-01-01T02:21:35Z</time>
      </trkpt>
      <trkpt lat="46.93806" lon="-0.93351">
        <ele>183</ele>
        <time>2010-01-01T02:21:58Z</time>
      </trkpt>
      <trkpt lat="46.93861" lon="-0.93451">
        <ele>177</ele>
        <time>2010-01-01T02:22:33Z</time>
      </trkpt>
      <trkpt lat="46.93897" lon="-0.9353">
        <ele>175</ele>
        <time>2010-01-01T02:22:59Z</time>
      </trkpt>
      <trkpt lat="46.93907" lon="-0.93578">
        <ele>172</ele>
        <time>2010-01-01T02:23:13Z</time>
      </trkpt>
      <trkpt lat="46.93913" lon="-0.93683">
        <ele>165</ele>
        <time>2010-01-01T02:23:42Z</time>
      </trkpt>
      <trkpt lat="46.93912" lon="-0.93731">
        <ele>163</ele>
        <time>2010-01-01T02:23:55Z</time>
      </trkpt>
      <trkpt lat="46.93904" lon="-0.93765">
        <ele>162</ele>
        <time>2010-01-01T02:24:05Z</time>
      </trkpt>
      <trkpt lat="46.93881" lon="-0.9383">
        <ele>160</ele>
        <time>2010-01-01T02:24:25Z</time>
      </trkpt>
      <trkpt lat="46.93873" lon="-0.93866">
        <ele>159</ele>
        <time>2010-01-01T02:24:35Z</time>
      </trkpt>
      <trkpt lat="46.93855" lon="-0.93961">
        <ele>156</ele>
        <time>2010-01-01T02:25:02Z</time>
      </trkpt>
      <trkpt lat="46.93847" lon="-0.94036">
        <ele>155</ele>
        <time>2010-01-01T02:25:23Z</time>
      </trkpt>
      <trkpt lat="46.93849" lon="-0.94067">
        <ele>156</ele>
        <time>2010-01-01T02:25:31Z</time>
      </trkpt>
      <trkpt lat="46.93858" lon="-0.94114">
        <ele>158</ele>
        <time>2010-01-01T02:25:45Z</time>
      </trkpt>
      <trkpt lat="46.93887" lon="-0.94206">
        <ele>160</ele>
        <time>2010-01-01T02:26:12Z</time>
      </trkpt>
      <trkpt lat="46.93933" lon="-0.9429">
        <ele>165</ele>
        <time>2010-01-01T02:26:42Z</time>
      </trkpt>
      <trkpt lat="46.93971" lon="-0.94343">
        <ele>169</ele>
        <time>2010-01-01T02:27:03Z</time>
      </trkpt>
      <trkpt lat="46.94166" lon="-0.94594">
        <ele>177</ele>
        <time>2010-01-01T02:28:47Z</time>
      </trkpt>
      <trkpt lat="46.94218" lon="-0.94645">
        <ele>177</ele>
        <time>2010-01-01T02:29:12Z</time>
      </trkpt>
      <trkpt lat="46.94294" lon="-0.94693">
        <ele>179</ele>
        <time>2010-01-01T02:29:45Z</time>
      </trkpt>
      <trkpt lat="46.94326" lon="-0.94721">
        <ele>181</ele>
        <time>2010-01-01T02:30:00Z</time>
      </trkpt>
      <trkpt lat="46.94344" lon="-0.94751">
        <ele>182</ele>
        <time>2010-01-01T02:30:11Z</time>
      </trkpt>
      <trkpt lat="46.94381" lon="-0.94843">
        <ele>184</ele>
        <time>2010-01-01T02:30:40Z</time>
      </trkpt>
      <trkpt lat="46.94393" lon="-0.94892">
        <ele>184</ele>
        <time>2010-01-01T02:30:54Z</time>
      </trkpt>
      <trkpt lat="46.94396" lon="-0.94944">
        <ele>184</ele>
        <time>2010-01-01T02:31:08Z</time>
      </trkpt>
      <trkpt lat="46.9439" lon="-0.95035">
        <ele>184</ele>
        <time>2010-01-01T02:31:33Z</time>
      </trkpt>
      <trkpt lat="46.94389" lon="-0.95115">
        <ele>182</ele>
        <time>2010-01-01T02:31:55Z</time>
      </trkpt>
      <trkpt lat="46.94395" lon="-0.9528">
        <ele>182</ele>
        <time>2010-01-01T02:32:40Z</time>
      </trkpt>
      <trkpt lat="46.94401" lon="-0.95353">
        <ele>180</ele>
        <time>2010-01-01T02:33:01Z</time>
      </trkpt>
      <trkpt lat="46.94416" lon="-0.95401">
        <ele>178</ele>
        <time>2010-01-01T02:33:15Z</time>
      </trkpt>
      <trkpt lat="46.94522" lon="-0.95581">
        <ele>173</ele>
        <time>2010-01-01T02:34:20Z</time>
      </trkpt>
      <trkpt lat="46.94581" lon="-0.95662">
        <ele>174</ele>
        <time>2010-01-01T02:34:52Z</time>
      </trkpt>
      <trkpt lat="46.94717" lon="-0.95825">
        <ele>176</ele>
        <time>2010-01-01T02:36:03Z</time>
      </trkpt>
      <trkpt lat="46.94845" lon="-0.95947">
        <ele>170</ele>
        <time>2010-01-01T02:37:04Z</time>
      </trkpt>
      <trkpt lat="46.94864" lon="-0.95978">
        <ele>171</ele>
        <time>2010-01-01T02:37:15Z</time>
      </trkpt>
      <trkpt lat="46.94882" lon="-0.96057">
        <ele>172</ele>
        <time>2010-01-01T02:37:38Z</time>
      </trkpt>
      <trkpt lat="46.9495" lon="-0.96285">
        <ele>167</ele>
        <time>2010-01-01T02:38:46Z</time>
      </trkpt>
      <trkpt lat="46.95004" lon="-0.96856">
        <ele>168</ele>
        <time>2010-01-01T02:41:23Z</time>
      </trkpt>
      <trkpt lat="46.95012" lon="-0.96905">
        <ele>168</ele>
        <time>2010-01-01T02:41:37Z</time>
      </trkpt>
      <trkpt lat="46.95028" lon="-0.96971">
        <ele>168</ele>
        <time>2010-01-01T02:41:56Z</time>
      </trkpt>
      <trkpt lat="46.95102" lon="-0.97166">
        <ele>168</ele>
        <time>2010-01-01T02:42:57Z</time>
      </trkpt>
      <trkpt lat="46.95116" lon="-0.97223">
        <ele>170</ele>
        <time>2010-01-01T02:43:14Z</time>
      </trkpt>
      <trkpt lat="46.95121" lon="-0.97284">
        <ele>168</ele>
        <time>2010-01-01T02:43:31Z</time>
      </trkpt>
      <trkpt lat="46.95121" lon="-0.9732">
        <ele>168</ele>
        <time>2010-01-01T02:43:41Z</time>
      </trkpt>
      <trkpt lat="46.95116" lon="-0.97356">
        <ele>170</ele>
        <time>2010-01-01T02:43:51Z</time>
      </trkpt>
      <trkpt lat="46.95076" lon="-0.97535">
        <ele>178</ele>
        <time>2010-01-01T02:44:42Z</time>
      </trkpt>
      <trkpt lat="46.95049" lon="-0.97709">
        <ele>181</ele>
        <time>2010-01-01T02:45:31Z</time>
      </trkpt>
      <trkpt lat="46.95032" lon="-0.97761">
        <ele>180</ele>
        <time>2010-01-01T02:45:47Z</time>
      </trkpt>
      <trkpt lat="46.95016" lon="-0.97794">
        <ele>181</ele>
        <time>2010-01-01T02:45:58Z</time>
      </trkpt>
      <trkpt lat="46.94976" lon="-0.97848">
        <ele>184</ele>
        <time>2010-01-01T02:46:19Z</time>
      </trkpt>
      <trkpt lat="46.94926" lon="-0.97885">
        <ele>183</ele>
        <time>2010-01-01T02:46:42Z</time>
      </trkpt>
      <trkpt lat="46.94756" lon="-0.97991">
        <ele>183</ele>
        <time>2010-01-01T02:47:56Z</time>
      </trkpt>
      <trkpt lat="46.94687" lon="-0.9802">
        <ele>185</ele>
        <time>2010-01-01T02:48:25Z</time>
      </trkpt>
      <trkpt lat="46.94679" lon="-0.98038">
        <ele>185</ele>
        <time>2010-01-01T02:48:30Z</time>
      </trkpt>
      <trkpt lat="46.94683" lon="-0.98093">
        <ele>185</ele>
        <time>2010-01-01T02:48:45Z</time>
      </trkpt>
      <trkpt lat="46.9473" lon="-0.98303">
        <ele>181</ele>
        <time>2010-01-01T02:49:46Z</time>
      </trkpt>
      <trkpt lat="46.94736" lon="-0.98381">
        <ele>184</ele>
        <time>2010-01-01T02:50:07Z</time>
      </trkpt>
      <trkpt lat="46.9474" lon="-0.98393">
        <ele>184</ele>
        <time>2010-01-01T02:50:11Z</time>
      </trkpt>
      <trkpt lat="46.94754" lon="-0.98406">
        <ele>183</ele>
        <time>2010-01-01T02:50:18Z</time>
      </trkpt>
      <trkpt lat="46.9477" lon="-0.98404">
        <ele>182</ele>
        <time>2010-01-01T02:50:24Z</time>
      </trkpt>
      <trkpt lat="46.94876" lon="-0.98353">
        <ele>180</ele>
        <time>2010-01-01T02:51:09Z</time>
      </trkpt>
      <trkpt lat="46.94966" lon="-0.98323">
        <ele>179</ele>
        <time>2010-01-01T02:51:46Z</time>
      </trkpt>
      <trkpt lat="46.95162" lon="-0.98242">
        <ele>177</ele>
        <time>2010-01-01T02:53:07Z</time>
      </trkpt>
      <trkpt lat="46.95335" lon="-0.98157">
        <ele>177</ele>
        <time>2010-01-01T02:54:20Z</time>
      </trkpt>
      <trkpt lat="46.95359" lon="-0.98151">
        <ele>177</ele>
        <time>2010-01-01T02:54:30Z</time>
      </trkpt>
      <trkpt lat="46.954" lon="-0.98155">
        <ele>177</ele>
        <time>2010-01-01T02:54:46Z</time>
      </trkpt>
      <trkpt lat="46.95444" lon="-0.98175">
        <ele>176</ele>
        <time>2010-01-01T02:55:05Z</time>
      </trkpt>
      <trkpt lat="46.95481" lon="-0.98213">
        <ele>172</ele>
        <time>2010-01-01T02:55:23Z</time>
      </trkpt>
      <trkpt lat="46.95624" lon="-0.98454">
        <ele>164</ele>
        <time>2010-01-01T02:56:50Z</time>
      </trkpt>
      <trkpt lat="46.95733" lon="-0.98657">
        <ele>161</ele>
        <time>2010-01-01T02:58:01Z</time>
      </trkpt>
      <trkpt lat="46.95763" lon="-0.98696">
        <ele>159</ele>
        <time>2010-01-01T02:58:17Z</time>
      </trkpt>
      <trkpt lat="46.95784" lon="-0.9871">
        <ele>158</ele>
        <time>2010-01-01T02:58:26Z</time>
      </trkpt>
      <trkpt lat="46.95835" lon="-0.98769">
        <ele>162</ele>
        <time>2010-01-01T02:58:52Z</time>
      </trkpt>
      <trkpt lat="46.95861" lon="-0.988">
        <ele>162</ele>
        <time>2010-01-01T02:59:05Z</time>
      </trkpt>
      <trkpt lat="46.95883" lon="-0.98839">
        <ele>161</ele>
        <time>2010-01-01T02:59:19Z</time>
      </trkpt>
      <trkpt lat="46.95908" lon="-0.98938">
        <ele>161</ele>
        <time>2010-01-01T02:59:48Z</time>
      </trkpt>
      <trkpt lat="46.95914" lon="-0.98987">
        <ele>162</ele>
        <time>2010-01-01T03:00:02Z</time>
      </trkpt>
      <trkpt lat="46.95932" lon="-0.99082">
        <ele>164</ele>
        <time>2010-01-01T03:00:29Z</time>
      </trkpt>
      <trkpt lat="46.95936" lon="-0.99085">
        <ele>165</ele>
        <time>2010-01-01T03:00:30Z</time>
      </trkpt>
      <trkpt lat="46.95935" lon="-0.99092">
        <ele>165</ele>
        <time>2010-01-01T03:00:32Z</time>
      </trkpt>
      <trkpt lat="46.95993" lon="-0.9923">
        <ele>164</ele>
        <time>2010-01-01T03:01:17Z</time>
      </trkpt>
      <trkpt lat="46.96014" lon="-0.99271">
        <ele>162</ele>
        <time>2010-01-01T03:01:31Z</time>
      </trkpt>
      <trkpt lat="46.96034" lon="-0.99326">
        <ele>159</ele>
        <time>2010-01-01T03:01:48Z</time>
      </trkpt>
      <trkpt lat="46.96108" lon="-0.99443">
        <ele>154</ele>
        <time>2010-01-01T03:02:31Z</time>
      </trkpt>
      <trkpt lat="46.96116" lon="-0.9946">
        <ele>155</ele>
        <time>2010-01-01T03:02:37Z</time>
      </trkpt>
      <trkpt lat="46.96127" lon="-0.99502">
        <ele>158</ele>
        <time>2010-01-01T03:02:49Z</time>
      </trkpt>
      <trkpt lat="46.96141" lon="-0.99519">
        <ele>158</ele>
        <time>2010-01-01T03:02:57Z</time>
      </trkpt>
      <trkpt lat="46.9614" lon="-0.99531">
        <ele>159</ele>
        <time>2010-01-01T03:03:00Z</time>
      </trkpt>
      <trkpt lat="46.96145" lon="-0.99553">
        <ele>159</ele>
        <time>2010-01-01T03:03:06Z</time>
      </trkpt>
      <trkpt lat="46.96165" lon="-0.99575">
        <ele>160</ele>
        <time>2010-01-01T03:03:16Z</time>
      </trkpt>
      <trkpt lat="46.96193" lon="-0.99641">
        <ele>161</ele>
        <time>2010-01-01T03:03:37Z</time>
      </trkpt>
      <trkpt lat="46.96207" lon="-0.99657">
        <ele>161</ele>
        <time>2010-01-01T03:03:45Z</time>
      </trkpt>
      <trkpt lat="46.96241" lon="-0.99672">
        <ele>160</ele>
        <time>2010-01-01T03:03:59Z</time>
      </trkpt>
      <trkpt lat="46.96307" lon="-0.99673">
        <ele>158</ele>
        <time>2010-01-01T03:04:25Z</time>
      </trkpt>
      <trkpt lat="46.96325" lon="-0.99687">
        <ele>158</ele>
        <time>2010-01-01T03:04:33Z</time>
      </trkpt>
      <trkpt lat="46.96334" lon="-0.99681">
        <ele>158</ele>
        <time>2010-01-01T03:04:37Z</time>
      </trkpt>
      <trkpt lat="46.96406" lon="-0.99675">
        <ele>159</ele>
        <time>2010-01-01T03:05:06Z</time>
      </trkpt>
      <trkpt lat="46.96449" lon="-0.99663">
        <ele>156</ele>
        <time>2010-01-01T03:05:24Z</time>
      </trkpt>
      <trkpt lat="46.96501" lon="-0.99665">
        <ele>153</ele>
        <time>2010-01-01T03:05:44Z</time>
      </trkpt>
      <trkpt lat="46.96621" lon="-0.99689">
        <ele>158</ele>
        <time>2010-01-01T03:06:33Z</time>
      </trkpt>
      <trkpt lat="46.96657" lon="-0.99731">
        <ele>159</ele>
        <time>2010-01-01T03:06:51Z</time>
      </trkpt>
      <trkpt lat="46.96698" lon="-0.99732">
        <ele>159</ele>
        <time>2010-01-01T03:07:08Z</time>
      </trkpt>
      <trkpt lat="46.96825" lon="-0.99731">
        <ele>157</ele>
        <time>2010-01-01T03:07:59Z</time>
      </trkpt>
      <trkpt lat="46.96854" lon="-0.99738">
        <ele>156</ele>
        <time>2010-01-01T03:08:10Z</time>
      </trkpt>
      <trkpt lat="46.96962" lon="-0.99786">
        <ele>153</ele>
        <time>2010-01-01T03:08:56Z</time>
      </trkpt>
      <trkpt lat="46.96989" lon="-0.99805">
        <ele>152</ele>
        <time>2010-01-01T03:09:08Z</time>
      </trkpt>
      <trkpt lat="46.97038" lon="-0.99854">
        <ele>148</ele>
        <time>2010-01-01T03:09:31Z</time>
      </trkpt>
      <trkpt lat="46.97083" lon="-0.99885">
        <ele>146</ele>
        <time>2010-01-01T03:09:51Z</time>
      </trkpt>
      <trkpt lat="46.97218" lon="-0.99944">
        <ele>143</ele>
        <time>2010-01-01T03:10:48Z</time>
      </trkpt>
      <trkpt lat="46.97276" lon="-0.99954">
        <ele>142</ele>
        <time>2010-01-01T03:11:11Z</time>
      </trkpt>
      <trkpt lat="46.97317" lon="-0.99948">
        <ele>141</ele>
        <time>2010-01-01T03:11:27Z</time>
      </trkpt>
      <trkpt lat="46.97394" lon="-0.99902">
        <ele>136</ele>
        <time>2010-01-01T03:12:01Z</time>
      </trkpt>
      <trkpt lat="46.97428" lon="-0.99887">
        <ele>134</ele>
        <time>2010-01-01T03:12:15Z</time>
      </trkpt>
      <trkpt lat="46.97456" lon="-0.99883">
        <ele>133</ele>
        <time>2010-01-01T03:12:26Z</time>
      </trkpt>
      <trkpt lat="46.97606" lon="-0.99892">
        <ele>130</ele>
        <time>2010-01-01T03:13:26Z</time>
      </trkpt>
      <trkpt lat="46.9768" lon="-1.00088">
        <ele>125</ele>
        <time>2010-01-01T03:14:28Z</time>
      </trkpt>
      <trkpt lat="46.97757" lon="-1.00166">
        <ele>122</ele>
        <time>2010-01-01T03:15:05Z</time>
      </trkpt>
      <trkpt lat="46.97803" lon="-1.0023">
        <ele>120</ele>
        <time>2010-01-01T03:15:30Z</time>
      </trkpt>
      <trkpt lat="46.97837" lon="-1.00342">
        <ele>113</ele>
        <time>2010-01-01T03:16:04Z</time>
      </trkpt>
      <trkpt lat="46.97862" lon="-1.00371">
        <ele>110</ele>
        <time>2010-01-01T03:16:17Z</time>
      </trkpt>
      <trkpt lat="46.97901" lon="-1.00401">
        <ele>106</ele>
        <time>2010-01-01T03:16:34Z</time>
      </trkpt>
      <trkpt lat="46.9793" lon="-1.00441">
        <ele>100</ele>
        <time>2010-01-01T03:16:50Z</time>
      </trkpt>
      <trkpt lat="46.97957" lon="-1.00461">
        <ele>95</ele>
        <time>2010-01-01T03:17:02Z</time>
      </trkpt>
      <trkpt lat="46.97988" lon="-1.00485">
        <ele>93</ele>
        <time>2010-01-01T03:17:16Z</time>
      </trkpt>
      <trkpt lat="46.98" lon="-1.00498">
        <ele>95</ele>
        <time>2010-01-01T03:17:22Z</time>
      </trkpt>
      <trkpt lat="46.98012" lon="-1.00537">
        <ele>98</ele>
        <time>2010-01-01T03:17:34Z</time>
      </trkpt>
      <trkpt lat="46.98027" lon="-1.0056">
        <ele>98</ele>
        <time>2010-01-01T03:17:43Z</time>
      </trkpt>
      <trkpt lat="46.98068" lon="-1.00573">
        <ele>103</ele>
        <time>2010-01-01T03:17:59Z</time>
      </trkpt>
      <trkpt lat="46.98081" lon="-1.00586">
        <ele>106</ele>
        <time>2010-01-01T03:18:06Z</time>
      </trkpt>
      <trkpt lat="46.98086" lon="-1.00603">
        <ele>108</ele>
        <time>2010-01-01T03:18:11Z</time>
      </trkpt>
      <trkpt lat="46.9809" lon="-1.00654">
        <ele>111</ele>
        <time>2010-01-01T03:18:25Z</time>
      </trkpt>
      <trkpt lat="46.98087" lon="-1.00692">
        <ele>111</ele>
        <time>2010-01-01T03:18:35Z</time>
      </trkpt>
      <trkpt lat="46.98092" lon="-1.00706">
        <ele>111</ele>
        <time>2010-01-01T03:18:40Z</time>
      </trkpt>
      <trkpt lat="46.98111" lon="-1.00716">
        <ele>111</ele>
        <time>2010-01-01T03:18:48Z</time>
      </trkpt>
      <trkpt lat="46.98183" lon="-1.00732">
        <ele>116</ele>
        <time>2010-01-01T03:19:17Z</time>
      </trkpt>
      <trkpt lat="46.98213" lon="-1.00716">
        <ele>118</ele>
        <time>2010-01-01T03:19:30Z</time>
      </trkpt>
      <trkpt lat="46.98278" lon="-1.00659">
        <ele>120</ele>
        <time>2010-01-01T03:20:00Z</time>
      </trkpt>
      <trkpt lat="46.98348" lon="-1.00528">
        <ele>121</ele>
        <time>2010-01-01T03:20:45Z</time>
      </trkpt>
      <trkpt lat="46.9836" lon="-1.00509">
        <ele>120</ele>
        <time>2010-01-01T03:20:52Z</time>
      </trkpt>
      <trkpt lat="46.98377" lon="-1.00493">
        <ele>120</ele>
        <time>2010-01-01T03:21:01Z</time>
      </trkpt>
      <trkpt lat="46.98451" lon="-1.00481">
        <ele>122</ele>
        <time>2010-01-01T03:21:30Z</time>
      </trkpt>
      <trkpt lat="46.98542" lon="-1.00478">
        <ele>125</ele>
        <time>2010-01-01T03:22:07Z</time>
      </trkpt>
      <trkpt lat="46.98644" lon="-1.00489">
        <ele>124</ele>
        <time>2010-01-01T03:22:48Z</time>
      </trkpt>
      <trkpt lat="46.98952" lon="-1.00617">
        <ele>109</ele>
        <time>2010-01-01T03:24:56Z</time>
      </trkpt>
      <trkpt lat="46.98992" lon="-1.00653">
        <ele>109</ele>
        <time>2010-01-01T03:25:15Z</time>
      </trkpt>
      <trkpt lat="46.9904" lon="-1.0073">
        <ele>108</ele>
        <time>2010-01-01T03:25:43Z</time>
      </trkpt>
      <trkpt lat="46.99067" lon="-1.00761">
        <ele>108</ele>
        <time>2010-01-01T03:25:57Z</time>
      </trkpt>
      <trkpt lat="46.99089" lon="-1.00775">
        <ele>108</ele>
        <time>2010-01-01T03:26:06Z</time>
      </trkpt>
      <trkpt lat="46.99241" lon="-1.00743">
        <ele>105</ele>
        <time>2010-01-01T03:27:08Z</time>
      </trkpt>
      <trkpt lat="46.9926" lon="-1.00732">
        <ele>104</ele>
        <time>2010-01-01T03:27:16Z</time>
      </trkpt>
      <trkpt lat="46.99295" lon="-1.00691">
        <ele>102</ele>
        <time>2010-01-01T03:27:34Z</time>
      </trkpt>
      <trkpt lat="46.9936" lon="-1.00661">
        <ele>104</ele>
        <time>2010-01-01T03:28:01Z</time>
      </trkpt>
      <trkpt lat="46.99378" lon="-1.00629">
        <ele>104</ele>
        <time>2010-01-01T03:28:13Z</time>
      </trkpt>
      <trkpt lat="46.99439" lon="-1.00424">
        <ele>103</ele>
        <time>2010-01-01T03:29:14Z</time>
      </trkpt>
      <trkpt lat="46.99449" lon="-1.00413">
        <ele>104</ele>
        <time>2010-01-01T03:29:19Z</time>
      </trkpt>
      <trkpt lat="46.99512" lon="-1.0041">
        <ele>101</ele>
        <time>2010-01-01T03:29:44Z</time>
      </trkpt>
      <trkpt lat="46.99538" lon="-1.00418">
        <ele>101</ele>
        <time>2010-01-01T03:29:55Z</time>
      </trkpt>
      <trkpt lat="46.99594" lon="-1.0045">
        <ele>100</ele>
        <time>2010-01-01T03:30:19Z</time>
      </trkpt>
      <trkpt lat="46.99674" lon="-1.00513">
        <ele>95</ele>
        <time>2010-01-01T03:30:55Z</time>
      </trkpt>
      <trkpt lat="46.99708" lon="-1.00564">
        <ele>93</ele>
        <time>2010-01-01T03:31:15Z</time>
      </trkpt>
      <trkpt lat="46.99747" lon="-1.00606">
        <ele>91</ele>
        <time>2010-01-01T03:31:34Z</time>
      </trkpt>
      <trkpt lat="46.9975" lon="-1.00615">
        <ele>90</ele>
        <time>2010-01-01T03:31:37Z</time>
      </trkpt>
      <trkpt lat="46.9975" lon="-1.00659">
        <ele>90</ele>
        <time>2010-01-01T03:31:49Z</time>
      </trkpt>
      <trkpt lat="46.99738" lon="-1.00752">
        <ele>91</ele>
        <time>2010-01-01T03:32:14Z</time>
      </trkpt>
      <trkpt lat="46.99671" lon="-1.00961">
        <ele>92</ele>
        <time>2010-01-01T03:33:18Z</time>
      </trkpt>
      <trkpt lat="46.99632" lon="-1.01059">
        <ele>84</ele>
        <time>2010-01-01T03:33:48Z</time>
      </trkpt>
      <trkpt lat="46.99594" lon="-1.01172">
        <ele>81</ele>
        <time>2010-01-01T03:34:23Z</time>
      </trkpt>
      <trkpt lat="46.99591" lon="-1.01187">
        <ele>81</ele>
        <time>2010-01-01T03:34:27Z</time>
      </trkpt>
      <trkpt lat="46.99595" lon="-1.01266">
        <ele>86</ele>
        <time>2010-01-01T03:34:49Z</time>
      </trkpt>
      <trkpt lat="46.99593" lon="-1.01289">
        <ele>87</ele>
        <time>2010-01-01T03:34:55Z</time>
      </trkpt>
      <trkpt lat="46.99549" lon="-1.01547">
        <ele>100</ele>
        <time>2010-01-01T03:36:08Z</time>
      </trkpt>
      <trkpt lat="46.99526" lon="-1.01599">
        <ele>101</ele>
        <time>2010-01-01T03:36:25Z</time>
      </trkpt>
      <trkpt lat="46.99524" lon="-1.01613">
        <ele>101</ele>
        <time>2010-01-01T03:36:29Z</time>
      </trkpt>
      <trkpt lat="46.99525" lon="-1.01642">
        <ele>100</ele>
        <time>2010-01-01T03:36:36Z</time>
      </trkpt>
      <trkpt lat="46.99536" lon="-1.0168">
        <ele>101</ele>
        <time>2010-01-01T03:36:48Z</time>
      </trkpt>
      <trkpt lat="46.99539" lon="-1.01735">
        <ele>103</ele>
        <time>2010-01-01T03:37:03Z</time>
      </trkpt>
      <trkpt lat="46.99524" lon="-1.01835">
        <ele>109</ele>
        <time>2010-01-01T03:37:31Z</time>
      </trkpt>
      <trkpt lat="46.99523" lon="-1.01868">
        <ele>111</ele>
        <time>2010-01-01T03:37:40Z</time>
      </trkpt>
      <trkpt lat="46.9955" lon="-1.02049">
        <ele>120</ele>
        <time>2010-01-01T03:38:30Z</time>
      </trkpt>
      <trkpt lat="46.99577" lon="-1.02224">
        <ele>125</ele>
        <time>2010-01-01T03:39:19Z</time>
      </trkpt>
      <trkpt lat="46.99575" lon="-1.0225">
        <ele>126</ele>
        <time>2010-01-01T03:39:27Z</time>
      </trkpt>
      <trkpt lat="46.9956" lon="-1.0232">
        <ele>128</ele>
        <time>2010-01-01T03:39:47Z</time>
      </trkpt>
      <trkpt lat="46.99553" lon="-1.02428">
        <ele>127</ele>
        <time>2010-01-01T03:40:16Z</time>
      </trkpt>
      <trkpt lat="46.99544" lon="-1.02472">
        <ele>127</ele>
        <time>2010-01-01T03:40:29Z</time>
      </trkpt>
      <trkpt lat="46.99533" lon="-1.02508">
        <ele>129</ele>
        <time>2010-01-01T03:40:39Z</time>
      </trkpt>
      <trkpt lat="46.99503" lon="-1.02571">
        <ele>129</ele>
        <time>2010-01-01T03:41:00Z</time>
      </trkpt>
      <trkpt lat="46.99505" lon="-1.02616">
        <ele>130</ele>
        <time>2010-01-01T03:41:13Z</time>
      </trkpt>
      <trkpt lat="46.99517" lon="-1.02695">
        <ele>128</ele>
        <time>2010-01-01T03:41:35Z</time>
      </trkpt>
      <trkpt lat="46.9952" lon="-1.02808">
        <ele>130</ele>
        <time>2010-01-01T03:42:06Z</time>
      </trkpt>
      <trkpt lat="46.99503" lon="-1.02882">
        <ele>131</ele>
        <time>2010-01-01T03:42:27Z</time>
      </trkpt>
      <trkpt lat="46.99485" lon="-1.03006">
        <ele>130</ele>
        <time>2010-01-01T03:43:02Z</time>
      </trkpt>
      <trkpt lat="46.99475" lon="-1.03037">
        <ele>130</ele>
        <time>2010-01-01T03:43:11Z</time>
      </trkpt>
      <trkpt lat="46.99465" lon="-1.03054">
        <ele>131</ele>
        <time>2010-01-01T03:43:17Z</time>
      </trkpt>
      <trkpt lat="46.994" lon="-1.03147">
        <ele>133</ele>
        <time>2010-01-01T03:43:54Z</time>
      </trkpt>
      <trkpt lat="46.99442" lon="-1.03267">
        <ele>136</ele>
        <time>2010-01-01T03:44:31Z</time>
      </trkpt>
      <trkpt lat="46.99477" lon="-1.03359">
        <ele>137</ele>
        <time>2010-01-01T03:44:59Z</time>
      </trkpt>
      <trkpt lat="46.99492" lon="-1.03471">
        <ele>138</ele>
        <time>2010-01-01T03:45:30Z</time>
      </trkpt>
      <trkpt lat="46.99504" lon="-1.03591">
        <ele>138</ele>
        <time>2010-01-01T03:46:04Z</time>
      </trkpt>
      <trkpt lat="46.99467" lon="-1.03703">
        <ele>139</ele>
        <time>2010-01-01T03:46:37Z</time>
      </trkpt>
      <trkpt lat="46.99401" lon="-1.03909">
        <ele>140</ele>
        <time>2010-01-01T03:47:39Z</time>
      </trkpt>
      <trkpt lat="46.99356" lon="-1.0404">
        <ele>137</ele>
        <time>2010-01-01T03:48:20Z</time>
      </trkpt>
      <trkpt lat="46.99313" lon="-1.04186">
        <ele>135</ele>
        <time>2010-01-01T03:49:03Z</time>
      </trkpt>
      <trkpt lat="46.99288" lon="-1.04282">
        <ele>136</ele>
        <time>2010-01-01T03:49:31Z</time>
      </trkpt>
      <trkpt lat="46.99271" lon="-1.04327">
        <ele>135</ele>
        <time>2010-01-01T03:49:45Z</time>
      </trkpt>
      <trkpt lat="46.99247" lon="-1.04372">
        <ele>134</ele>
        <time>2010-01-01T03:50:01Z</time>
      </trkpt>
      <trkpt lat="46.99208" lon="-1.044">
        <ele>134</ele>
        <time>2010-01-01T03:50:18Z</time>
      </trkpt>
      <trkpt lat="46.99178" lon="-1.04451">
        <ele>135</ele>
        <time>2010-01-01T03:50:37Z</time>
      </trkpt>
      <trkpt lat="46.99129" lon="-1.04456">
        <ele>134</ele>
        <time>2010-01-01T03:50:56Z</time>
      </trkpt>
      <trkpt lat="46.99092" lon="-1.04442">
        <ele>133</ele>
        <time>2010-01-01T03:51:12Z</time>
      </trkpt>
      <trkpt lat="46.99043" lon="-1.04406">
        <ele>130</ele>
        <time>2010-01-01T03:51:34Z</time>
      </trkpt>
      <trkpt lat="46.99027" lon="-1.04405">
        <ele>128</ele>
        <time>2010-01-01T03:51:40Z</time>
      </trkpt>
      <trkpt lat="46.99009" lon="-1.04412">
        <ele>127</ele>
        <time>2010-01-01T03:51:47Z</time>
      </trkpt>
      <trkpt lat="46.98992" lon="-1.04424">
        <ele>125</ele>
        <time>2010-01-01T03:51:55Z</time>
      </trkpt>
      <trkpt lat="46.98974" lon="-1.04452">
        <ele>124</ele>
        <time>2010-01-01T03:52:05Z</time>
      </trkpt>
      <trkpt lat="46.98964" lon="-1.04489">
        <ele>122</ele>
        <time>2010-01-01T03:52:16Z</time>
      </trkpt>
      <trkpt lat="46.98937" lon="-1.04641">
        <ele>118</ele>
        <time>2010-01-01T03:52:59Z</time>
      </trkpt>
      <trkpt lat="46.98923" lon="-1.04695">
        <ele>115</ele>
        <time>2010-01-01T03:53:15Z</time>
      </trkpt>
      <trkpt lat="46.98905" lon="-1.04727">
        <ele>113</ele>
        <time>2010-01-01T03:53:26Z</time>
      </trkpt>
      <trkpt lat="46.98876" lon="-1.04739">
        <ele>110</ele>
        <time>2010-01-01T03:53:38Z</time>
      </trkpt>
      <trkpt lat="46.98797" lon="-1.04734">
        <ele>107</ele>
        <time>2010-01-01T03:54:10Z</time>
      </trkpt>
      <trkpt lat="46.9877" lon="-1.04738">
        <ele>107</ele>
        <time>2010-01-01T03:54:21Z</time>
      </trkpt>
      <trkpt lat="46.9874" lon="-1.04749">
        <ele>108</ele>
        <time>2010-01-01T03:54:33Z</time>
      </trkpt>
      <trkpt lat="46.98677" lon="-1.04783">
        <ele>111</ele>
        <time>2010-01-01T03:55:00Z</time>
      </trkpt>
      <trkpt lat="46.98485" lon="-1.04968">
        <ele>116</ele>
        <time>2010-01-01T03:56:32Z</time>
      </trkpt>
      <trkpt lat="46.98451" lon="-1.04993">
        <ele>115</ele>
        <time>2010-01-01T03:56:47Z</time>
      </trkpt>
      <trkpt lat="46.98412" lon="-1.0501">
        <ele>115</ele>
        <time>2010-01-01T03:57:04Z</time>
      </trkpt>
      <trkpt lat="46.98243" lon="-1.05059">
        <ele>115</ele>
        <time>2010-01-01T03:58:13Z</time>
      </trkpt>
      <trkpt lat="46.98217" lon="-1.05073">
        <ele>115</ele>
        <time>2010-01-01T03:58:24Z</time>
      </trkpt>
      <trkpt lat="46.98189" lon="-1.05093">
        <ele>115</ele>
        <time>2010-01-01T03:58:36Z</time>
      </trkpt>
      <trkpt lat="46.98077" lon="-1.05196">
        <ele>111</ele>
        <time>2010-01-01T03:59:29Z</time>
      </trkpt>
      <trkpt lat="46.98041" lon="-1.05221">
        <ele>111</ele>
        <time>2010-01-01T03:59:45Z</time>
      </trkpt>
      <trkpt lat="46.98" lon="-1.05227">
        <ele>109</ele>
        <time>2010-01-01T04:00:01Z</time>
      </trkpt>
      <trkpt lat="46.97975" lon="-1.05218">
        <ele>109</ele>
        <time>2010-01-01T04:00:12Z</time>
      </trkpt>
      <trkpt lat="46.97857" lon="-1.0514">
        <ele>111</ele>
        <time>2010-01-01T04:01:04Z</time>
      </trkpt>
      <trkpt lat="46.97822" lon="-1.05134">
        <ele>113</ele>
        <time>2010-01-01T04:01:18Z</time>
      </trkpt>
      <trkpt lat="46.97795" lon="-1.05141">
        <ele>114</ele>
        <time>2010-01-01T04:01:29Z</time>
      </trkpt>
      <trkpt lat="46.97688" lon="-1.05195">
        <ele>118</ele>
        <time>2010-01-01T04:02:14Z</time>
      </trkpt>
      <trkpt lat="46.97659" lon="-1.05203">
        <ele>118</ele>
        <time>2010-01-01T04:02:26Z</time>
      </trkpt>
      <trkpt lat="46.97604" lon="-1.05197">
        <ele>118</ele>
        <time>2010-01-01T04:02:48Z</time>
      </trkpt>
      <trkpt lat="46.97498" lon="-1.05174">
        <ele>121</ele>
        <time>2010-01-01T04:03:31Z</time>
      </trkpt>
      <trkpt lat="46.97446" lon="-1.05181">
        <ele>121</ele>
        <time>2010-01-01T04:03:52Z</time>
      </trkpt>
      <trkpt lat="46.97381" lon="-1.05196">
        <ele>123</ele>
        <time>2010-01-01T04:04:18Z</time>
      </trkpt>
      <trkpt lat="46.97382" lon="-1.05359">
        <ele>121</ele>
        <time>2010-01-01T04:05:03Z</time>
      </trkpt>
      <trkpt lat="46.97401" lon="-1.05365">
        <ele>120</ele>
        <time>2010-01-01T04:05:10Z</time>
      </trkpt>
      <trkpt lat="46.97503" lon="-1.05431">
        <ele>119</ele>
        <time>2010-01-01T04:05:55Z</time>
      </trkpt>
      <trkpt lat="46.97541" lon="-1.05477">
        <ele>119</ele>
        <time>2010-01-01T04:06:15Z</time>
      </trkpt>
      <trkpt lat="46.97625" lon="-1.05606">
        <ele>119</ele>
        <time>2010-01-01T04:07:03Z</time>
      </trkpt>
      <trkpt lat="46.97675" lon="-1.05699">
        <ele>118</ele>
        <time>2010-01-01T04:07:36Z</time>
      </trkpt>
      <trkpt lat="46.97746" lon="-1.05766">
        <ele>119</ele>
        <time>2010-01-01T04:08:10Z</time>
      </trkpt>
      <trkpt lat="46.97768" lon="-1.05797">
        <ele>120</ele>
        <time>2010-01-01T04:08:22Z</time>
      </trkpt>
      <trkpt lat="46.97868" lon="-1.06009">
        <ele>117</ele>
        <time>2010-01-01T04:09:32Z</time>
      </trkpt>
      <trkpt lat="46.97892" lon="-1.06051">
        <ele>116</ele>
        <time>2010-01-01T04:09:47Z</time>
      </trkpt>
      <trkpt lat="46.97993" lon="-1.06163">
        <ele>112</ele>
        <time>2010-01-01T04:10:38Z</time>
      </trkpt>
      <trkpt lat="46.98038" lon="-1.06201">
        <ele>112</ele>
        <time>2010-01-01T04:10:59Z</time>
      </trkpt>
      <trkpt lat="46.98112" lon="-1.06234">
        <ele>108</ele>
        <time>2010-01-01T04:11:30Z</time>
      </trkpt>
      <trkpt lat="46.98135" lon="-1.06255">
        <ele>107</ele>
        <time>2010-01-01T04:11:40Z</time>
      </trkpt>
      <trkpt lat="46.98191" lon="-1.06321">
        <ele>105</ele>
        <time>2010-01-01T04:12:09Z</time>
      </trkpt>
      <trkpt lat="46.98208" lon="-1.06331">
        <ele>105</ele>
        <time>2010-01-01T04:12:17Z</time>
      </trkpt>
      <trkpt lat="46.98275" lon="-1.06348">
        <ele>101</ele>
        <time>2010-01-01T04:12:44Z</time>
      </trkpt>
      <trkpt lat="46.98307" lon="-1.06369">
        <ele>100</ele>
        <time>2010-01-01T04:12:58Z</time>
      </trkpt>
      <trkpt lat="46.98427" lon="-1.06474">
        <ele>100</ele>
        <time>2010-01-01T04:13:54Z</time>
      </trkpt>
      <trkpt lat="46.98456" lon="-1.06511">
        <ele>101</ele>
        <time>2010-01-01T04:14:09Z</time>
      </trkpt>
      <trkpt lat="46.98521" lon="-1.06611">
        <ele>102</ele>
        <time>2010-01-01T04:14:47Z</time>
      </trkpt>
      <trkpt lat="46.98742" lon="-1.0679">
        <ele>96</ele>
        <time>2010-01-01T04:16:28Z</time>
      </trkpt>
      <trkpt lat="46.99013" lon="-1.07008">
        <ele>88</ele>
        <time>2010-01-01T04:18:32Z</time>
      </trkpt>
      <trkpt lat="46.99035" lon="-1.07044">
        <ele>88</ele>
        <time>2010-01-01T04:18:45Z</time>
      </trkpt>
      <trkpt lat="46.99054" lon="-1.07128">
        <ele>87</ele>
        <time>2010-01-01T04:19:09Z</time>
      </trkpt>
      <trkpt lat="46.99064" lon="-1.07153">
        <ele>86</ele>
        <time>2010-01-01T04:19:17Z</time>
      </trkpt>
      <trkpt lat="46.99126" lon="-1.07241">
        <ele>86</ele>
        <time>2010-01-01T04:19:51Z</time>
      </trkpt>
      <trkpt lat="46.99177" lon="-1.07293">
        <ele>86</ele>
        <time>2010-01-01T04:20:16Z</time>
      </trkpt>
      <trkpt lat="46.99327" lon="-1.07376">
        <ele>83</ele>
        <time>2010-01-01T04:21:20Z</time>
      </trkpt>
      <trkpt lat="46.99595" lon="-1.07449">
        <ele>67</ele>
        <time>2010-01-01T04:23:10Z</time>
      </trkpt>
      <trkpt lat="46.99615" lon="-1.07466">
        <ele>65</ele>
        <time>2010-01-01T04:23:19Z</time>
      </trkpt>
      <trkpt lat="46.99651" lon="-1.07528">
        <ele>64</ele>
        <time>2010-01-01T04:23:41Z</time>
      </trkpt>
      <trkpt lat="46.99681" lon="-1.07494">
        <ele>63</ele>
        <time>2010-01-01T04:23:56Z</time>
      </trkpt>
      <trkpt lat="46.99702" lon="-1.07479">
        <ele>63</ele>
        <time>2010-01-01T04:24:06Z</time>
      </trkpt>
      <trkpt lat="46.99791" lon="-1.07466">
        <ele>63</ele>
        <time>2010-01-01T04:24:41Z</time>
      </trkpt>
      <trkpt lat="46.99802" lon="-1.07636">
        <ele>72</ele>
        <time>2010-01-01T04:25:28Z</time>
      </trkpt>
      <trkpt lat="46.99812" lon="-1.07799">
        <ele>80</ele>
        <time>2010-01-01T04:26:13Z</time>
      </trkpt>
      <trkpt lat="46.99833" lon="-1.07975">
        <ele>85</ele>
        <time>2010-01-01T04:27:02Z</time>
      </trkpt>
      <trkpt lat="46.99834" lon="-1.08116">
        <ele>90</ele>
        <time>2010-01-01T04:27:40Z</time>
      </trkpt>
      <trkpt lat="46.99842" lon="-1.08216">
        <ele>91</ele>
        <time>2010-01-01T04:28:07Z</time>
      </trkpt>
      <trkpt lat="47.00022" lon="-1.08634">
        <ele>107</ele>
        <time>2010-01-01T04:30:22Z</time>
      </trkpt>
      <trkpt lat="47.00093" lon="-1.08772">
        <ele>107</ele>
        <time>2010-01-01T04:31:10Z</time>
      </trkpt>
      <trkpt lat="47.00158" lon="-1.08888">
        <ele>107</ele>
        <time>2010-01-01T04:31:51Z</time>
      </trkpt>
      <trkpt lat="47.0019" lon="-1.08933">
        <ele>107</ele>
        <time>2010-01-01T04:32:08Z</time>
      </trkpt>
      <trkpt lat="47.00246" lon="-1.08998">
        <ele>108</ele>
        <time>2010-01-01T04:32:37Z</time>
      </trkpt>
      <trkpt lat="47.00377" lon="-1.09176">
        <ele>105</ele>
        <time>2010-01-01T04:33:48Z</time>
      </trkpt>
      <trkpt lat="47.0043" lon="-1.09285">
        <ele>104</ele>
        <time>2010-01-01T04:34:25Z</time>
      </trkpt>
      <trkpt lat="47.00483" lon="-1.09408">
        <ele>104</ele>
        <time>2010-01-01T04:35:05Z</time>
      </trkpt>
      <trkpt lat="47.00516" lon="-1.09495">
        <ele>104</ele>
        <time>2010-01-01T04:35:32Z</time>
      </trkpt>
      <trkpt lat="47.00546" lon="-1.09555">
        <ele>105</ele>
        <time>2010-01-01T04:35:52Z</time>
      </trkpt>
      <trkpt lat="47.0056" lon="-1.09574">
        <ele>106</ele>
        <time>2010-01-01T04:36:00Z</time>
      </trkpt>
      <trkpt lat="47.00658" lon="-1.09648">
        <ele>106</ele>
        <time>2010-01-01T04:36:44Z</time>
      </trkpt>
      <trkpt lat="47.0079" lon="-1.09824">
        <ele>107</ele>
        <time>2010-01-01T04:37:55Z</time>
      </trkpt>
      <trkpt lat="47.00819" lon="-1.09878">
        <ele>106</ele>
        <time>2010-01-01T04:38:14Z</time>
      </trkpt>
      <trkpt lat="47.00899" lon="-1.10066">
        <ele>108</ele>
        <time>2010-01-01T04:39:15Z</time>
      </trkpt>
      <trkpt lat="47.01009" lon="-1.10266">
        <ele>109</ele>
        <time>2010-01-01T04:40:25Z</time>
      </trkpt>
      <trkpt lat="47.01057" lon="-1.10369">
        <ele>106</ele>
        <time>2010-01-01T04:40:59Z</time>
      </trkpt>
      <trkpt lat="47.01081" lon="-1.10455">
        <ele>106</ele>
        <time>2010-01-01T04:41:24Z</time>
      </trkpt>
      <trkpt lat="47.01092" lon="-1.10522">
        <ele>105</ele>
        <time>2010-01-01T04:41:43Z</time>
      </trkpt>
      <trkpt lat="47.01106" lon="-1.10714">
        <ele>102</ele>
        <time>2010-01-01T04:42:36Z</time>
      </trkpt>
      <trkpt lat="47.01123" lon="-1.10808">
        <ele>102</ele>
        <time>2010-01-01T04:43:02Z</time>
      </trkpt>
      <trkpt lat="47.01184" lon="-1.10996">
        <ele>97</ele>
        <time>2010-01-01T04:43:59Z</time>
      </trkpt>
      <trkpt lat="47.01198" lon="-1.11033">
        <ele>96</ele>
        <time>2010-01-01T04:44:11Z</time>
      </trkpt>
      <trkpt lat="47.0124" lon="-1.11084">
        <ele>94</ele>
        <time>2010-01-01T04:44:32Z</time>
      </trkpt>
      <trkpt lat="47.01252" lon="-1.11125">
        <ele>93</ele>
        <time>2010-01-01T04:44:45Z</time>
      </trkpt>
      <trkpt lat="47.01253" lon="-1.11144">
        <ele>92</ele>
        <time>2010-01-01T04:44:50Z</time>
      </trkpt>
      <trkpt lat="47.01277" lon="-1.11162">
        <ele>92</ele>
        <time>2010-01-01T04:45:01Z</time>
      </trkpt>
      <trkpt lat="47.01209" lon="-1.11219">
        <ele>93</ele>
        <time>2010-01-01T04:45:32Z</time>
      </trkpt>
      <trkpt lat="47.012" lon="-1.11232">
        <ele>92</ele>
        <time>2010-01-01T04:45:37Z</time>
      </trkpt>
      <trkpt lat="47.01195" lon="-1.11249">
        <ele>92</ele>
        <time>2010-01-01T04:45:42Z</time>
      </trkpt>
      <trkpt lat="47.01174" lon="-1.11352">
        <ele>91</ele>
        <time>2010-01-01T04:46:11Z</time>
      </trkpt>
      <trkpt lat="47.01142" lon="-1.11338">
        <ele>92</ele>
        <time>2010-01-01T04:46:25Z</time>
      </trkpt>
      <trkpt lat="47.01064" lon="-1.1132">
        <ele>94</ele>
        <time>2010-01-01T04:46:56Z</time>
      </trkpt>
      <trkpt lat="47.01033" lon="-1.1132">
        <ele>93</ele>
        <time>2010-01-01T04:47:09Z</time>
      </trkpt>
      <trkpt lat="47.01007" lon="-1.11328">
        <ele>92</ele>
        <time>2010-01-01T04:47:19Z</time>
      </trkpt>
      <trkpt lat="47.00972" lon="-1.11349">
        <ele>91</ele>
        <time>2010-01-01T04:47:35Z</time>
      </trkpt>
      <trkpt lat="47.00934" lon="-1.11381">
        <ele>90</ele>
        <time>2010-01-01T04:47:52Z</time>
      </trkpt>
      <trkpt lat="47.00905" lon="-1.11419">
        <ele>87</ele>
        <time>2010-01-01T04:48:08Z</time>
      </trkpt>
      <trkpt lat="47.00878" lon="-1.11465">
        <ele>85</ele>
        <time>2010-01-01T04:48:24Z</time>
      </trkpt>
      <trkpt lat="47.00805" lon="-1.11538">
        <ele>82</ele>
        <time>2010-01-01T04:49:00Z</time>
      </trkpt>
      <trkpt lat="47.00785" lon="-1.11554">
        <ele>82</ele>
        <time>2010-01-01T04:49:09Z</time>
      </trkpt>
      <trkpt lat="47.00761" lon="-1.11564">
        <ele>81</ele>
        <time>2010-01-01T04:49:19Z</time>
      </trkpt>
      <trkpt lat="47.0071" lon="-1.1157">
        <ele>76</ele>
        <time>2010-01-01T04:49:39Z</time>
      </trkpt>
      <trkpt lat="47.00602" lon="-1.11584">
        <ele>67</ele>
        <time>2010-01-01T04:50:23Z</time>
      </trkpt>
      <trkpt lat="47.00573" lon="-1.11599">
        <ele>63</ele>
        <time>2010-01-01T04:50:35Z</time>
      </trkpt>
      <trkpt lat="47.0056" lon="-1.1161">
        <ele>61</ele>
        <time>2010-01-01T04:50:41Z</time>
      </trkpt>
      <trkpt lat="47.00495" lon="-1.11698">
        <ele>58</ele>
        <time>2010-01-01T04:51:16Z</time>
      </trkpt>
      <trkpt lat="47.00483" lon="-1.11706">
        <ele>58</ele>
        <time>2010-01-01T04:51:22Z</time>
      </trkpt>
      <trkpt lat="47.00471" lon="-1.11705">
        <ele>59</ele>
        <time>2010-01-01T04:51:26Z</time>
      </trkpt>
      <trkpt lat="47.00437" lon="-1.11672">
        <ele>62</ele>
        <time>2010-01-01T04:51:43Z</time>
      </trkpt>
      <trkpt lat="47.00424" lon="-1.11667">
        <ele>62</ele>
        <time>2010-01-01T04:51:48Z</time>
      </trkpt>
      <trkpt lat="47.00259" lon="-1.11639">
        <ele>74</ele>
        <time>2010-01-01T04:52:55Z</time>
      </trkpt>
      <trkpt lat="47.00235" lon="-1.11631">
        <ele>75</ele>
        <time>2010-01-01T04:53:04Z</time>
      </trkpt>
      <trkpt lat="47.00174" lon="-1.11596">
        <ele>79</ele>
        <time>2010-01-01T04:53:31Z</time>
      </trkpt>
      <trkpt lat="47.00158" lon="-1.11596">
        <ele>80</ele>
        <time>2010-01-01T04:53:37Z</time>
      </trkpt>
      <trkpt lat="47.00129" lon="-1.11608">
        <ele>82</ele>
        <time>2010-01-01T04:53:49Z</time>
      </trkpt>
      <trkpt lat="47.00064" lon="-1.11645">
        <ele>85</ele>
        <time>2010-01-01T04:54:17Z</time>
      </trkpt>
      <trkpt lat="47.00065" lon="-1.11672">
        <ele>85</ele>
        <time>2010-01-01T04:54:24Z</time>
      </trkpt>
      <trkpt lat="47.00101" lon="-1.11869">
        <ele>83</ele>
        <time>2010-01-01T04:55:20Z</time>
      </trkpt>
      <trkpt lat="47.00077" lon="-1.12031">
        <ele>85</ele>
        <time>2010-01-01T04:56:05Z</time>
      </trkpt>
      <trkpt lat="47.00084" lon="-1.12155">
        <ele>84</ele>
        <time>2010-01-01T04:56:39Z</time>
      </trkpt>
      <trkpt lat="47.00079" lon="-1.12193">
        <ele>85</ele>
        <time>2010-01-01T04:56:50Z</time>
      </trkpt>
      <trkpt lat="47.00063" lon="-1.12212">
        <ele>85</ele>
        <time>2010-01-01T04:56:58Z</time>
      </trkpt>
      <trkpt lat="46.99968" lon="-1.12248">
        <ele>87</ele>
        <time>2010-01-01T04:57:37Z</time>
      </trkpt>
      <trkpt lat="46.99916" lon="-1.12276">
        <ele>89</ele>
        <time>2010-01-01T04:58:00Z</time>
      </trkpt>
      <trkpt lat="46.99904" lon="-1.12267">
        <ele>89</ele>
        <time>2010-01-01T04:58:05Z</time>
      </trkpt>
      <trkpt lat="46.99886" lon="-1.12233">
        <ele>90</ele>
        <time>2010-01-01T04:58:17Z</time>
      </trkpt>
      <trkpt lat="46.99872" lon="-1.12233">
        <ele>90</ele>
        <time>2010-01-01T04:58:22Z</time>
      </trkpt>
      <trkpt lat="46.99849" lon="-1.12258">
        <ele>91</ele>
        <time>2010-01-01T04:58:34Z</time>
      </trkpt>
      <trkpt lat="46.99691" lon="-1.12484">
        <ele>91</ele>
        <time>2010-01-01T05:00:02Z</time>
      </trkpt>
      <trkpt lat="46.99622" lon="-1.12497">
        <ele>92</ele>
        <time>2010-01-01T05:00:30Z</time>
      </trkpt>
      <trkpt lat="46.99574" lon="-1.12507">
        <ele>92</ele>
        <time>2010-01-01T05:00:49Z</time>
      </trkpt>
      <trkpt lat="46.99556" lon="-1.12524">
        <ele>93</ele>
        <time>2010-01-01T05:00:58Z</time>
      </trkpt>
      <trkpt lat="46.99533" lon="-1.12555">
        <ele>95</ele>
        <time>2010-01-01T05:01:11Z</time>
      </trkpt>
      <trkpt lat="46.99492" lon="-1.12564">
        <ele>95</ele>
        <time>2010-01-01T05:01:27Z</time>
      </trkpt>
      <trkpt lat="46.99471" lon="-1.12558">
        <ele>95</ele>
        <time>2010-01-01T05:01:36Z</time>
      </trkpt>
      <trkpt lat="46.99417" lon="-1.12511">
        <ele>96</ele>
        <time>2010-01-01T05:02:01Z</time>
      </trkpt>
      <trkpt lat="46.99388" lon="-1.125">
        <ele>96</ele>
        <time>2010-01-01T05:02:13Z</time>
      </trkpt>
      <trkpt lat="46.99036" lon="-1.12535">
        <ele>99</ele>
        <time>2010-01-01T05:04:34Z</time>
      </trkpt>
      <trkpt lat="46.99" lon="-1.12533">
        <ele>99</ele>
        <time>2010-01-01T05:04:48Z</time>
      </trkpt>
      <trkpt lat="46.98912" lon="-1.12516">
        <ele>96</ele>
        <time>2010-01-01T05:05:24Z</time>
      </trkpt>
      <trkpt lat="46.98874" lon="-1.12516">
        <ele>97</ele>
        <time>2010-01-01T05:05:39Z</time>
      </trkpt>
      <trkpt lat="46.9881" lon="-1.12533">
        <ele>97</ele>
        <time>2010-01-01T05:06:05Z</time>
      </trkpt>
      <trkpt lat="46.98594" lon="-1.12611">
        <ele>96</ele>
        <time>2010-01-01T05:07:34Z</time>
      </trkpt>
      <trkpt lat="46.98565" lon="-1.12616">
        <ele>96</ele>
        <time>2010-01-01T05:07:46Z</time>
      </trkpt>
      <trkpt lat="46.9849" lon="-1.12605">
        <ele>95</ele>
        <time>2010-01-01T05:08:16Z</time>
      </trkpt>
      <trkpt lat="46.98466" lon="-1.12596">
        <ele>95</ele>
        <time>2010-01-01T05:08:26Z</time>
      </trkpt>
      <trkpt lat="46.98434" lon="-1.12562">
        <ele>94</ele>
        <time>2010-01-01T05:08:42Z</time>
      </trkpt>
      <trkpt lat="46.98417" lon="-1.12553">
        <ele>94</ele>
        <time>2010-01-01T05:08:49Z</time>
      </trkpt>
      <trkpt lat="46.98406" lon="-1.12554">
        <ele>94</ele>
        <time>2010-01-01T05:08:54Z</time>
      </trkpt>
      <trkpt lat="46.98395" lon="-1.12558">
        <ele>95</ele>
        <time>2010-01-01T05:08:58Z</time>
      </trkpt>
      <trkpt lat="46.9832" lon="-1.1262">
        <ele>94</ele>
        <time>2010-01-01T05:09:33Z</time>
      </trkpt>
      <trkpt lat="46.98248" lon="-1.12654">
        <ele>94</ele>
        <time>2010-01-01T05:10:03Z</time>
      </trkpt>
      <trkpt lat="46.98134" lon="-1.12734">
        <ele>92</ele>
        <time>2010-01-01T05:10:53Z</time>
      </trkpt>
      <trkpt lat="46.98071" lon="-1.12766">
        <ele>94</ele>
        <time>2010-01-01T05:11:20Z</time>
      </trkpt>
      <trkpt lat="46.98049" lon="-1.12784">
        <ele>94</ele>
        <time>2010-01-01T05:11:30Z</time>
      </trkpt>
      <trkpt lat="46.98029" lon="-1.12808">
        <ele>94</ele>
        <time>2010-01-01T05:11:41Z</time>
      </trkpt>
      <trkpt lat="46.97977" lon="-1.12875">
        <ele>97</ele>
        <time>2010-01-01T05:12:08Z</time>
      </trkpt>
      <trkpt lat="46.97912" lon="-1.12931">
        <ele>99</ele>
        <time>2010-01-01T05:12:38Z</time>
      </trkpt>
      <trkpt lat="46.97849" lon="-1.12976">
        <ele>102</ele>
        <time>2010-01-01T05:13:07Z</time>
      </trkpt>
      <trkpt lat="46.97666" lon="-1.1306">
        <ele>102</ele>
        <time>2010-01-01T05:14:23Z</time>
      </trkpt>
      <trkpt lat="46.97522" lon="-1.13111">
        <ele>100</ele>
        <time>2010-01-01T05:15:23Z</time>
      </trkpt>
      <trkpt lat="46.97511" lon="-1.13123">
        <ele>100</ele>
        <time>2010-01-01T05:15:28Z</time>
      </trkpt>
      <trkpt lat="46.97251" lon="-1.12898">
        <ele>100</ele>
        <time>2010-01-01T05:17:29Z</time>
      </trkpt>
      <trkpt lat="46.97206" lon="-1.12864">
        <ele>100</ele>
        <time>2010-01-01T05:17:49Z</time>
      </trkpt>
      <trkpt lat="46.97169" lon="-1.12829">
        <ele>100</ele>
        <time>2010-01-01T05:18:07Z</time>
      </trkpt>
      <trkpt lat="46.97054" lon="-1.12699">
        <ele>98</ele>
        <time>2010-01-01T05:19:05Z</time>
      </trkpt>
      <trkpt lat="46.97035" lon="-1.12671">
        <ele>98</ele>
        <time>2010-01-01T05:19:16Z</time>
      </trkpt>
      <trkpt lat="46.96992" lon="-1.1259">
        <ele>100</ele>
        <time>2010-01-01T05:19:44Z</time>
      </trkpt>
      <trkpt lat="46.96901" lon="-1.12475">
        <ele>101</ele>
        <time>2010-01-01T05:20:32Z</time>
      </trkpt>
      <trkpt lat="46.9674" lon="-1.12199">
        <ele>102</ele>
        <time>2010-01-01T05:22:11Z</time>
      </trkpt>
      <trkpt lat="46.96711" lon="-1.12156">
        <ele>103</ele>
        <time>2010-01-01T05:22:28Z</time>
      </trkpt>
      <trkpt lat="46.96541" lon="-1.11945">
        <ele>110</ele>
        <time>2010-01-01T05:23:57Z</time>
      </trkpt>
      <trkpt lat="46.96497" lon="-1.11882">
        <ele>111</ele>
        <time>2010-01-01T05:24:21Z</time>
      </trkpt>
      <trkpt lat="46.96425" lon="-1.11932">
        <ele>111</ele>
        <time>2010-01-01T05:24:53Z</time>
      </trkpt>
      <trkpt lat="46.96386" lon="-1.11946">
        <ele>110</ele>
        <time>2010-01-01T05:25:09Z</time>
      </trkpt>
      <trkpt lat="46.96356" lon="-1.11949">
        <ele>110</ele>
        <time>2010-01-01T05:25:21Z</time>
      </trkpt>
      <trkpt lat="46.96279" lon="-1.11988">
        <ele>108</ele>
        <time>2010-01-01T05:25:54Z</time>
      </trkpt>
      <trkpt lat="46.96152" lon="-1.12032">
        <ele>107</ele>
        <time>2010-01-01T05:26:46Z</time>
      </trkpt>
      <trkpt lat="46.96152" lon="-1.12223">
        <ele>105</ele>
        <time>2010-01-01T05:27:38Z</time>
      </trkpt>
      <trkpt lat="46.96145" lon="-1.1259">
        <ele>102</ele>
        <time>2010-01-01T05:29:19Z</time>
      </trkpt>
      <trkpt lat="46.9607" lon="-1.13502">
        <ele>101</ele>
        <time>2010-01-01T05:33:30Z</time>
      </trkpt>
      <trkpt lat="46.9601" lon="-1.14215">
        <ele>101</ele>
        <time>2010-01-01T05:36:46Z</time>
      </trkpt>
      <trkpt lat="46.95974" lon="-1.14203">
        <ele>100</ele>
        <time>2010-01-01T05:37:01Z</time>
      </trkpt>
      <trkpt lat="46.95889" lon="-1.14153">
        <ele>98</ele>
        <time>2010-01-01T05:37:37Z</time>
      </trkpt>
      <trkpt lat="46.95851" lon="-1.14121">
        <ele>97</ele>
        <time>2010-01-01T05:37:55Z</time>
      </trkpt>
      <trkpt lat="46.95766" lon="-1.1403">
        <ele>96</ele>
        <time>2010-01-01T05:38:37Z</time>
      </trkpt>
      <trkpt lat="46.95676" lon="-1.13902">
        <ele>96</ele>
        <time>2010-01-01T05:39:27Z</time>
      </trkpt>
      <trkpt lat="46.95655" lon="-1.1389">
        <ele>97</ele>
        <time>2010-01-01T05:39:36Z</time>
      </trkpt>
      <trkpt lat="46.95641" lon="-1.13899">
        <ele>97</ele>
        <time>2010-01-01T05:39:42Z</time>
      </trkpt>
      <trkpt lat="46.95596" lon="-1.13996">
        <ele>97</ele>
        <time>2010-01-01T05:40:15Z</time>
      </trkpt>
      <trkpt lat="46.95533" lon="-1.141">
        <ele>96</ele>
        <time>2010-01-01T05:40:52Z</time>
      </trkpt>
      <trkpt lat="46.95442" lon="-1.14271">
        <ele>97</ele>
        <time>2010-01-01T05:41:52Z</time>
      </trkpt>
      <trkpt lat="46.95346" lon="-1.14428">
        <ele>95</ele>
        <time>2010-01-01T05:42:49Z</time>
      </trkpt>
      <trkpt lat="46.95253" lon="-1.14607">
        <ele>94</ele>
        <time>2010-01-01T05:43:51Z</time>
      </trkpt>
      <trkpt lat="46.95221" lon="-1.14674">
        <ele>95</ele>
        <time>2010-01-01T05:44:13Z</time>
      </trkpt>
      <trkpt lat="46.95067" lon="-1.15058">
        <ele>96</ele>
        <time>2010-01-01T05:46:15Z</time>
      </trkpt>
      <trkpt lat="46.94993" lon="-1.15209">
        <ele>93</ele>
        <time>2010-01-01T05:47:06Z</time>
      </trkpt>
      <trkpt lat="46.94982" lon="-1.1524">
        <ele>92</ele>
        <time>2010-01-01T05:47:15Z</time>
      </trkpt>
      <trkpt lat="46.94974" lon="-1.15305">
        <ele>90</ele>
        <time>2010-01-01T05:47:33Z</time>
      </trkpt>
      <trkpt lat="46.94976" lon="-1.15324">
        <ele>90</ele>
        <time>2010-01-01T05:47:38Z</time>
      </trkpt>
      <trkpt lat="46.95" lon="-1.15396">
        <ele>90</ele>
        <time>2010-01-01T05:48:00Z</time>
      </trkpt>
      <trkpt lat="46.95002" lon="-1.15415">
        <ele>90</ele>
        <time>2010-01-01T05:48:06Z</time>
      </trkpt>
      <trkpt lat="46.94994" lon="-1.15516">
        <ele>88</ele>
        <time>2010-01-01T05:48:33Z</time>
      </trkpt>
      <trkpt lat="46.94983" lon="-1.15592">
        <ele>85</ele>
        <time>2010-01-01T05:48:55Z</time>
      </trkpt>
      <trkpt lat="46.9497" lon="-1.15641">
        <ele>84</ele>
        <time>2010-01-01T05:49:09Z</time>
      </trkpt>
      <trkpt lat="46.94958" lon="-1.15675">
        <ele>82</ele>
        <time>2010-01-01T05:49:19Z</time>
      </trkpt>
      <trkpt lat="46.94925" lon="-1.15743">
        <ele>81</ele>
        <time>2010-01-01T05:49:42Z</time>
      </trkpt>
      <trkpt lat="46.94875" lon="-1.15834">
        <ele>85</ele>
        <time>2010-01-01T05:50:14Z</time>
      </trkpt>
      <trkpt lat="46.94866" lon="-1.15844">
        <ele>85</ele>
        <time>2010-01-01T05:50:19Z</time>
      </trkpt>
      <trkpt lat="46.94778" lon="-1.15885">
        <ele>86</ele>
        <time>2010-01-01T05:50:56Z</time>
      </trkpt>
      <trkpt lat="46.94742" lon="-1.15891">
        <ele>87</ele>
        <time>2010-01-01T05:51:10Z</time>
      </trkpt>
      <trkpt lat="46.94635" lon="-1.15886">
        <ele>89</ele>
        <time>2010-01-01T05:51:53Z</time>
      </trkpt>
      <trkpt lat="46.94572" lon="-1.15872">
        <ele>90</ele>
        <time>2010-01-01T05:52:19Z</time>
      </trkpt>
      <trkpt lat="46.94544" lon="-1.15872">
        <ele>91</ele>
        <time>2010-01-01T05:52:30Z</time>
      </trkpt>
      <trkpt lat="46.94448" lon="-1.159">
        <ele>93</ele>
        <time>2010-01-01T05:53:09Z</time>
      </trkpt>
      <trkpt lat="46.94391" lon="-1.15909">
        <ele>93</ele>
        <time>2010-01-01T05:53:32Z</time>
      </trkpt>
      <trkpt lat="46.94359" lon="-1.15907">
        <ele>93</ele>
        <time>2010-01-01T05:53:45Z</time>
      </trkpt>
      <trkpt lat="46.94334" lon="-1.15902">
        <ele>93</ele>
        <time>2010-01-01T05:53:55Z</time>
      </trkpt>
      <trkpt lat="46.94043" lon="-1.15759">
        <ele>91</ele>
        <time>2010-01-01T05:55:58Z</time>
      </trkpt>
      <trkpt lat="46.94022" lon="-1.1576">
        <ele>91</ele>
        <time>2010-01-01T05:56:06Z</time>
      </trkpt>
      <trkpt lat="46.93923" lon="-1.15802">
        <ele>90</ele>
        <time>2010-01-01T05:56:47Z</time>
      </trkpt>
      <trkpt lat="46.93892" lon="-1.1581">
        <ele>89</ele>
        <time>2010-01-01T05:57:00Z</time>
      </trkpt>
      <trkpt lat="46.93733" lon="-1.15766">
        <ele>92</ele>
        <time>2010-01-01T05:58:05Z</time>
      </trkpt>
      <trkpt lat="46.93641" lon="-1.15716">
        <ele>92</ele>
        <time>2010-01-01T05:58:44Z</time>
      </trkpt>
      <trkpt lat="46.93632" lon="-1.15707">
        <ele>92</ele>
        <time>2010-01-01T05:58:48Z</time>
      </trkpt>
      <trkpt lat="46.93613" lon="-1.15679">
        <ele>92</ele>
        <time>2010-01-01T05:58:59Z</time>
      </trkpt>
      <trkpt lat="46.9354" lon="-1.15513">
        <ele>89</ele>
        <time>2010-01-01T05:59:53Z</time>
      </trkpt>
      <trkpt lat="46.93513" lon="-1.1547">
        <ele>88</ele>
        <time>2010-01-01T06:00:09Z</time>
      </trkpt>
      <trkpt lat="46.93452" lon="-1.15396">
        <ele>88</ele>
        <time>2010-01-01T06:00:41Z</time>
      </trkpt>
      <trkpt lat="46.93363" lon="-1.15322">
        <ele>90</ele>
        <time>2010-01-01T06:01:22Z</time>
      </trkpt>
      <trkpt lat="46.93226" lon="-1.15185">
        <ele>89</ele>
        <time>2010-01-01T06:02:28Z</time>
      </trkpt>
      <trkpt lat="46.93246" lon="-1.15123">
        <ele>89</ele>
        <time>2010-01-01T06:02:47Z</time>
      </trkpt>
      <trkpt lat="46.93257" lon="-1.15075">
        <ele>89</ele>
        <time>2010-01-01T06:03:01Z</time>
      </trkpt>
      <trkpt lat="46.93294" lon="-1.15026">
        <ele>90</ele>
        <time>2010-01-01T06:03:21Z</time>
      </trkpt>
      <trkpt lat="46.93316" lon="-1.14987">
        <ele>90</ele>
        <time>2010-01-01T06:03:35Z</time>
      </trkpt>
      <trkpt lat="46.93351" lon="-1.14945">
        <ele>90</ele>
        <time>2010-01-01T06:03:53Z</time>
      </trkpt>
      <trkpt lat="46.93356" lon="-1.14926">
        <ele>90</ele>
        <time>2010-01-01T06:03:58Z</time>
      </trkpt>
      <trkpt lat="46.93355" lon="-1.14901">
        <ele>90</ele>
        <time>2010-01-01T06:04:05Z</time>
      </trkpt>
      <trkpt lat="46.93335" lon="-1.14815">
        <ele>91</ele>
        <time>2010-01-01T06:04:30Z</time>
      </trkpt>
      <trkpt lat="46.93301" lon="-1.14707">
        <ele>92</ele>
        <time>2010-01-01T06:05:02Z</time>
      </trkpt>
      <trkpt lat="46.93236" lon="-1.14545">
        <ele>92</ele>
        <time>2010-01-01T06:05:54Z</time>
      </trkpt>
      <trkpt lat="46.93153" lon="-1.14376">
        <ele>91</ele>
        <time>2010-01-01T06:06:51Z</time>
      </trkpt>
      <trkpt lat="46.93152" lon="-1.14351">
        <ele>90</ele>
        <time>2010-01-01T06:06:58Z</time>
      </trkpt>
      <trkpt lat="46.93155" lon="-1.14337">
        <ele>90</ele>
        <time>2010-01-01T06:07:02Z</time>
      </trkpt>
      <trkpt lat="46.93248" lon="-1.14141">
        <ele>90</ele>
        <time>2010-01-01T06:08:07Z</time>
      </trkpt>
      <trkpt lat="46.93358" lon="-1.13903">
        <ele>92</ele>
        <time>2010-01-01T06:09:25Z</time>
      </trkpt>
      <trkpt lat="46.93388" lon="-1.13864">
        <ele>91</ele>
        <time>2010-01-01T06:09:41Z</time>
      </trkpt>
      <trkpt lat="46.93476" lon="-1.13784">
        <ele>93</ele>
        <time>2010-01-01T06:10:23Z</time>
      </trkpt>
      <trkpt lat="46.93486" lon="-1.13767">
        <ele>93</ele>
        <time>2010-01-01T06:10:29Z</time>
      </trkpt>
      <trkpt lat="46.93485" lon="-1.13739">
        <ele>94</ele>
        <time>2010-01-01T06:10:37Z</time>
      </trkpt>
      <trkpt lat="46.93468" lon="-1.13684">
        <ele>92</ele>
        <time>2010-01-01T06:10:53Z</time>
      </trkpt>
      <trkpt lat="46.93469" lon="-1.13674">
        <ele>92</ele>
        <time>2010-01-01T06:10:56Z</time>
      </trkpt>
      <trkpt lat="46.93498" lon="-1.13595">
        <ele>93</ele>
        <time>2010-01-01T06:11:20Z</time>
      </trkpt>
      <trkpt lat="46.93518" lon="-1.13494">
        <ele>92</ele>
        <time>2010-01-01T06:11:49Z</time>
      </trkpt>
      <trkpt lat="46.93577" lon="-1.13397">
        <ele>93</ele>
        <time>2010-01-01T06:12:25Z</time>
      </trkpt>
      <trkpt lat="46.93581" lon="-1.13339">
        <ele>92</ele>
        <time>2010-01-01T06:12:41Z</time>
      </trkpt>
      <trkpt lat="46.93592" lon="-1.13273">
        <ele>93</ele>
        <time>2010-01-01T06:12:59Z</time>
      </trkpt>
      <trkpt lat="46.93584" lon="-1.13232">
        <ele>93</ele>
        <time>2010-01-01T06:13:11Z</time>
      </trkpt>
      <trkpt lat="46.93567" lon="-1.13174">
        <ele>94</ele>
        <time>2010-01-01T06:13:28Z</time>
      </trkpt>
      <trkpt lat="46.93538" lon="-1.131">
        <ele>94</ele>
        <time>2010-01-01T06:13:51Z</time>
      </trkpt>
      <trkpt lat="46.93526" lon="-1.13041">
        <ele>95</ele>
        <time>2010-01-01T06:14:08Z</time>
      </trkpt>
      <trkpt lat="46.93527" lon="-1.12997">
        <ele>94</ele>
        <time>2010-01-01T06:14:20Z</time>
      </trkpt>
      <trkpt lat="46.93546" lon="-1.12916">
        <ele>96</ele>
        <time>2010-01-01T06:14:44Z</time>
      </trkpt>
      <trkpt lat="46.93551" lon="-1.12877">
        <ele>98</ele>
        <time>2010-01-01T06:14:55Z</time>
      </trkpt>
      <trkpt lat="46.93549" lon="-1.12822">
        <ele>99</ele>
        <time>2010-01-01T06:15:10Z</time>
      </trkpt>
      <trkpt lat="46.93522" lon="-1.12602">
        <ele>102</ele>
        <time>2010-01-01T06:16:11Z</time>
      </trkpt>
      <trkpt lat="46.93495" lon="-1.12502">
        <ele>100</ele>
        <time>2010-01-01T06:16:40Z</time>
      </trkpt>
      <trkpt lat="46.93412" lon="-1.12325">
        <ele>96</ele>
        <time>2010-01-01T06:17:39Z</time>
      </trkpt>
      <trkpt lat="46.9336" lon="-1.12235">
        <ele>96</ele>
        <time>2010-01-01T06:18:11Z</time>
      </trkpt>
      <trkpt lat="46.93325" lon="-1.12094">
        <ele>100</ele>
        <time>2010-01-01T06:18:52Z</time>
      </trkpt>
      <trkpt lat="46.93284" lon="-1.11821">
        <ele>102</ele>
        <time>2010-01-01T06:20:08Z</time>
      </trkpt>
      <trkpt lat="46.93274" lon="-1.11781">
        <ele>102</ele>
        <time>2010-01-01T06:20:20Z</time>
      </trkpt>
      <trkpt lat="46.9318" lon="-1.11425">
        <ele>98</ele>
        <time>2010-01-01T06:22:04Z</time>
      </trkpt>
      <trkpt lat="46.93162" lon="-1.11388">
        <ele>98</ele>
        <time>2010-01-01T06:22:17Z</time>
      </trkpt>
      <trkpt lat="46.93089" lon="-1.11318">
        <ele>100</ele>
        <time>2010-01-01T06:22:52Z</time>
      </trkpt>
      <trkpt lat="46.93078" lon="-1.1131">
        <ele>100</ele>
        <time>2010-01-01T06:22:57Z</time>
      </trkpt>
      <trkpt lat="46.93055" lon="-1.11308">
        <ele>99</ele>
        <time>2010-01-01T06:23:06Z</time>
      </trkpt>
      <trkpt lat="46.92964" lon="-1.11336">
        <ele>98</ele>
        <time>2010-01-01T06:23:43Z</time>
      </trkpt>
      <trkpt lat="46.92885" lon="-1.11377">
        <ele>97</ele>
        <time>2010-01-01T06:24:17Z</time>
      </trkpt>
      <trkpt lat="46.92866" lon="-1.11381">
        <ele>96</ele>
        <time>2010-01-01T06:24:24Z</time>
      </trkpt>
      <trkpt lat="46.92765" lon="-1.11362">
        <ele>96</ele>
        <time>2010-01-01T06:25:05Z</time>
      </trkpt>
      <trkpt lat="46.92749" lon="-1.11355">
        <ele>95</ele>
        <time>2010-01-01T06:25:12Z</time>
      </trkpt>
      <trkpt lat="46.92716" lon="-1.11326">
        <ele>95</ele>
        <time>2010-01-01T06:25:27Z</time>
      </trkpt>
      <trkpt lat="46.92745" lon="-1.1113">
        <ele>99</ele>
        <time>2010-01-01T06:26:22Z</time>
      </trkpt>
      <trkpt lat="46.92585" lon="-1.11055">
        <ele>97</ele>
        <time>2010-01-01T06:27:29Z</time>
      </trkpt>
      <trkpt lat="46.92431" lon="-1.10934">
        <ele>102</ele>
        <time>2010-01-01T06:28:39Z</time>
      </trkpt>
      <trkpt lat="46.92265" lon="-1.108">
        <ele>98</ele>
        <time>2010-01-01T06:29:55Z</time>
      </trkpt>
      <trkpt lat="46.92238" lon="-1.10768">
        <ele>98</ele>
        <time>2010-01-01T06:30:09Z</time>
      </trkpt>
      <trkpt lat="46.92209" lon="-1.10716">
        <ele>99</ele>
        <time>2010-01-01T06:30:27Z</time>
      </trkpt>
      <trkpt lat="46.92203" lon="-1.10714">
        <ele>99</ele>
        <time>2010-01-01T06:30:30Z</time>
      </trkpt>
      <trkpt lat="46.92198" lon="-1.10688">
        <ele>100</ele>
        <time>2010-01-01T06:30:37Z</time>
      </trkpt>
      <trkpt lat="46.92182" lon="-1.1066">
        <ele>101</ele>
        <time>2010-01-01T06:30:47Z</time>
      </trkpt>
      <trkpt lat="46.92111" lon="-1.10588">
        <ele>104</ele>
        <time>2010-01-01T06:31:22Z</time>
      </trkpt>
      <trkpt lat="46.92026" lon="-1.10474">
        <ele>103</ele>
        <time>2010-01-01T06:32:08Z</time>
      </trkpt>
      <trkpt lat="46.91927" lon="-1.10187">
        <ele>106</ele>
        <time>2010-01-01T06:33:36Z</time>
      </trkpt>
      <trkpt lat="46.91909" lon="-1.10162">
        <ele>107</ele>
        <time>2010-01-01T06:33:46Z</time>
      </trkpt>
      <trkpt lat="46.9188" lon="-1.10141">
        <ele>108</ele>
        <time>2010-01-01T06:33:59Z</time>
      </trkpt>
      <trkpt lat="46.91788" lon="-1.10109">
        <ele>109</ele>
        <time>2010-01-01T06:34:37Z</time>
      </trkpt>
      <trkpt lat="46.91736" lon="-1.10079">
        <ele>109</ele>
        <time>2010-01-01T06:34:59Z</time>
      </trkpt>
      <trkpt lat="46.9172" lon="-1.10075">
        <ele>108</ele>
        <time>2010-01-01T06:35:05Z</time>
      </trkpt>
      <trkpt lat="46.91632" lon="-1.10078">
        <ele>108</ele>
        <time>2010-01-01T06:35:41Z</time>
      </trkpt>
      <trkpt lat="46.91531" lon="-1.10078">
        <ele>105</ele>
        <time>2010-01-01T06:36:21Z</time>
      </trkpt>
      <trkpt lat="46.91505" lon="-1.10071">
        <ele>104</ele>
        <time>2010-01-01T06:36:32Z</time>
      </trkpt>
      <trkpt lat="46.91425" lon="-1.10034">
        <ele>104</ele>
        <time>2010-01-01T06:37:05Z</time>
      </trkpt>
      <trkpt lat="46.91425" lon="-1.10012">
        <ele>104</ele>
        <time>2010-01-01T06:37:11Z</time>
      </trkpt>
      <trkpt lat="46.91394" lon="-1.09745">
        <ele>96</ele>
        <time>2010-01-01T06:38:25Z</time>
      </trkpt>
      <trkpt lat="46.91394" lon="-1.09632">
        <ele>92</ele>
        <time>2010-01-01T06:38:56Z</time>
      </trkpt>
      <trkpt lat="46.91389" lon="-1.09577">
        <ele>91</ele>
        <time>2010-01-01T06:39:11Z</time>
      </trkpt>
      <trkpt lat="46.91392" lon="-1.09518">
        <ele>92</ele>
        <time>2010-01-01T06:39:28Z</time>
      </trkpt>
      <trkpt lat="46.91401" lon="-1.09464">
        <ele>93</ele>
        <time>2010-01-01T06:39:43Z</time>
      </trkpt>
      <trkpt lat="46.91418" lon="-1.09399">
        <ele>94</ele>
        <time>2010-01-01T06:40:02Z</time>
      </trkpt>
      <trkpt lat="46.9142" lon="-1.09352">
        <ele>95</ele>
        <time>2010-01-01T06:40:15Z</time>
      </trkpt>
      <trkpt lat="46.91408" lon="-1.09282">
        <ele>95</ele>
        <time>2010-01-01T06:40:34Z</time>
      </trkpt>
      <trkpt lat="46.91382" lon="-1.09184">
        <ele>102</ele>
        <time>2010-01-01T06:41:03Z</time>
      </trkpt>
      <trkpt lat="46.91381" lon="-1.0918">
        <ele>102</ele>
        <time>2010-01-01T06:41:04Z</time>
      </trkpt>
      <trkpt lat="46.91292" lon="-1.08923">
        <ele>100</ele>
        <time>2010-01-01T06:42:23Z</time>
      </trkpt>
      <trkpt lat="46.91288" lon="-1.0892">
        <ele>100</ele>
        <time>2010-01-01T06:42:25Z</time>
      </trkpt>
      <trkpt lat="46.91289" lon="-1.08913">
        <ele>100</ele>
        <time>2010-01-01T06:42:27Z</time>
      </trkpt>
      <trkpt lat="46.91305" lon="-1.08908">
        <ele>100</ele>
        <time>2010-01-01T06:42:33Z</time>
      </trkpt>
      <trkpt lat="46.91397" lon="-1.08752">
        <ele>101</ele>
        <time>2010-01-01T06:43:30Z</time>
      </trkpt>
      <trkpt lat="46.91411" lon="-1.08734">
        <ele>101</ele>
        <time>2010-01-01T06:43:37Z</time>
      </trkpt>
      <trkpt lat="46.91406" lon="-1.08726">
        <ele>101</ele>
        <time>2010-01-01T06:43:40Z</time>
      </trkpt>
      <trkpt lat="46.91402" lon="-1.08699">
        <ele>101</ele>
        <time>2010-01-01T06:43:48Z</time>
      </trkpt>
      <trkpt lat="46.91409" lon="-1.08602">
        <ele>99</ele>
        <time>2010-01-01T06:44:14Z</time>
      </trkpt>
      <trkpt lat="46.91412" lon="-1.08508">
        <ele>98</ele>
        <time>2010-01-01T06:44:40Z</time>
      </trkpt>
      <trkpt lat="46.91423" lon="-1.08394">
        <ele>99</ele>
        <time>2010-01-01T06:45:12Z</time>
      </trkpt>
      <trkpt lat="46.9142" lon="-1.08357">
        <ele>99</ele>
        <time>2010-01-01T06:45:22Z</time>
      </trkpt>
      <trkpt lat="46.91373" lon="-1.0821">
        <ele>101</ele>
        <time>2010-01-01T06:46:06Z</time>
      </trkpt>
      <trkpt lat="46.91354" lon="-1.08141">
        <ele>103</ele>
        <time>2010-01-01T06:46:27Z</time>
      </trkpt>
      <trkpt lat="46.91349" lon="-1.07915">
        <ele>106</ele>
        <time>2010-01-01T06:47:28Z</time>
      </trkpt>
      <trkpt lat="46.91351" lon="-1.07874">
        <ele>107</ele>
        <time>2010-01-01T06:47:40Z</time>
      </trkpt>
      <trkpt lat="46.91384" lon="-1.0774">
        <ele>108</ele>
        <time>2010-01-01T06:48:19Z</time>
      </trkpt>
      <trkpt lat="46.91393" lon="-1.07664">
        <ele>109</ele>
        <time>2010-01-01T06:48:40Z</time>
      </trkpt>
      <trkpt lat="46.91371" lon="-1.07617">
        <ele>109</ele>
        <time>2010-01-01T06:48:55Z</time>
      </trkpt>
      <trkpt lat="46.91339" lon="-1.07529">
        <ele>110</ele>
        <time>2010-01-01T06:49:23Z</time>
      </trkpt>
      <trkpt lat="46.91307" lon="-1.07461">
        <ele>111</ele>
        <time>2010-01-01T06:49:45Z</time>
      </trkpt>
      <trkpt lat="46.9125" lon="-1.07375">
        <ele>108</ele>
        <time>2010-01-01T06:50:18Z</time>
      </trkpt>
      <trkpt lat="46.9123" lon="-1.07334">
        <ele>108</ele>
        <time>2010-01-01T06:50:32Z</time>
      </trkpt>
      <trkpt lat="46.91163" lon="-1.07301">
        <ele>107</ele>
        <time>2010-01-01T06:51:00Z</time>
      </trkpt>
      <trkpt lat="46.91122" lon="-1.0729">
        <ele>107</ele>
        <time>2010-01-01T06:51:17Z</time>
      </trkpt>
      <trkpt lat="46.91002" lon="-1.07272">
        <ele>108</ele>
        <time>2010-01-01T06:52:05Z</time>
      </trkpt>
      <trkpt lat="46.90883" lon="-1.07222">
        <ele>105</ele>
        <time>2010-01-01T06:52:54Z</time>
      </trkpt>
      <trkpt lat="46.90839" lon="-1.07194">
        <ele>103</ele>
        <time>2010-01-01T06:53:14Z</time>
      </trkpt>
      <trkpt lat="46.90772" lon="-1.07138">
        <ele>102</ele>
        <time>2010-01-01T06:53:45Z</time>
      </trkpt>
      <trkpt lat="46.90733" lon="-1.07087">
        <ele>102</ele>
        <time>2010-01-01T06:54:06Z</time>
      </trkpt>
      <trkpt lat="46.90567" lon="-1.0678">
        <ele>106</ele>
        <time>2010-01-01T06:55:53Z</time>
      </trkpt>
      <trkpt lat="46.90535" lon="-1.06811">
        <ele>105</ele>
        <time>2010-01-01T06:56:08Z</time>
      </trkpt>
      <trkpt lat="46.90456" lon="-1.06904">
        <ele>102</ele>
        <time>2010-01-01T06:56:49Z</time>
      </trkpt>
      <trkpt lat="46.90388" lon="-1.06947">
        <ele>102</ele>
        <time>2010-01-01T06:57:18Z</time>
      </trkpt>
      <trkpt lat="46.90362" lon="-1.06974">
        <ele>103</ele>
        <time>2010-01-01T06:57:31Z</time>
      </trkpt>
      <trkpt lat="46.90242" lon="-1.07221">
        <ele>103</ele>
        <time>2010-01-01T06:58:54Z</time>
      </trkpt>
      <trkpt lat="46.9023" lon="-1.07269">
        <ele>102</ele>
        <time>2010-01-01T06:59:08Z</time>
      </trkpt>
      <trkpt lat="46.9024" lon="-1.07286">
        <ele>102</ele>
        <time>2010-01-01T06:59:14Z</time>
      </trkpt>
      <trkpt lat="46.9024" lon="-1.07313">
        <ele>102</ele>
        <time>2010-01-01T06:59:21Z</time>
      </trkpt>
      <trkpt lat="46.90226" lon="-1.07331">
        <ele>102</ele>
        <time>2010-01-01T06:59:29Z</time>
      </trkpt>
      <trkpt lat="46.90207" lon="-1.07331">
        <ele>101</ele>
        <time>2010-01-01T06:59:36Z</time>
      </trkpt>
      <trkpt lat="46.90197" lon="-1.07317">
        <ele>101</ele>
        <time>2010-01-01T06:59:42Z</time>
      </trkpt>
      <trkpt lat="46.90194" lon="-1.073">
        <ele>101</ele>
        <time>2010-01-01T06:59:47Z</time>
      </trkpt>
      <trkpt lat="46.90197" lon="-1.07278">
        <ele>101</ele>
        <time>2010-01-01T06:59:53Z</time>
      </trkpt>
      <trkpt lat="46.90202" lon="-1.07269">
        <ele>101</ele>
        <time>2010-01-01T06:59:56Z</time>
      </trkpt>
      <trkpt lat="46.90196" lon="-1.07215">
        <ele>103</ele>
        <time>2010-01-01T07:00:11Z</time>
      </trkpt>
      <trkpt lat="46.90184" lon="-1.07167">
        <ele>102</ele>
        <time>2010-01-01T07:00:25Z</time>
      </trkpt>
      <trkpt lat="46.90159" lon="-1.07089">
        <ele>101</ele>
        <time>2010-01-01T07:00:49Z</time>
      </trkpt>
      <trkpt lat="46.90119" lon="-1.07021">
        <ele>101</ele>
        <time>2010-01-01T07:01:13Z</time>
      </trkpt>
      <trkpt lat="46.89957" lon="-1.06826">
        <ele>95</ele>
        <time>2010-01-01T07:02:37Z</time>
      </trkpt>
      <trkpt lat="46.89751" lon="-1.06512">
        <ele>90</ele>
        <time>2010-01-01T07:04:36Z</time>
      </trkpt>
      <trkpt lat="46.89451" lon="-1.05679">
        <ele>102</ele>
        <time>2010-01-01T07:08:54Z</time>
      </trkpt>
      <trkpt lat="46.89542" lon="-1.05572">
        <ele>102</ele>
        <time>2010-01-01T07:09:40Z</time>
      </trkpt>
      <trkpt lat="46.89648" lon="-1.05494">
        <ele>103</ele>
        <time>2010-01-01T07:10:28Z</time>
      </trkpt>
      <trkpt lat="46.8973" lon="-1.05413">
        <ele>106</ele>
        <time>2010-01-01T07:11:07Z</time>
      </trkpt>
      <trkpt lat="46.89786" lon="-1.05331">
        <ele>108</ele>
        <time>2010-01-01T07:11:39Z</time>
      </trkpt>
      <trkpt lat="46.89847" lon="-1.05267">
        <ele>106</ele>
        <time>2010-01-01T07:12:09Z</time>
      </trkpt>
      <trkpt lat="46.89809" lon="-1.05198">
        <ele>107</ele>
        <time>2010-01-01T07:12:33Z</time>
      </trkpt>
      <trkpt lat="46.89759" lon="-1.04949">
        <ele>109</ele>
        <time>2010-01-01T07:13:44Z</time>
      </trkpt>
      <trkpt lat="46.89721" lon="-1.04834">
        <ele>109</ele>
        <time>2010-01-01T07:14:19Z</time>
      </trkpt>
      <trkpt lat="46.89877" lon="-1.04851">
        <ele>111</ele>
        <time>2010-01-01T07:15:22Z</time>
      </trkpt>
      <trkpt lat="46.89923" lon="-1.04765">
        <ele>112</ele>
        <time>2010-01-01T07:15:52Z</time>
      </trkpt>
      <trkpt lat="46.89979" lon="-1.04623">
        <ele>116</ele>
        <time>2010-01-01T07:16:37Z</time>
      </trkpt>
      <trkpt lat="46.90003" lon="-1.04563">
        <ele>116</ele>
        <time>2010-01-01T07:16:56Z</time>
      </trkpt>
      <trkpt lat="46.90105" lon="-1.04434">
        <ele>119</ele>
        <time>2010-01-01T07:17:50Z</time>
      </trkpt>
      <trkpt lat="46.90143" lon="-1.0437">
        <ele>118</ele>
        <time>2010-01-01T07:18:13Z</time>
      </trkpt>
      <trkpt lat="46.90184" lon="-1.04379">
        <ele>118</ele>
        <time>2010-01-01T07:18:30Z</time>
      </trkpt>
      <trkpt lat="46.90205" lon="-1.04327">
        <ele>120</ele>
        <time>2010-01-01T07:18:46Z</time>
      </trkpt>
      <trkpt lat="46.9019" lon="-1.04284">
        <ele>119</ele>
        <time>2010-01-01T07:18:59Z</time>
      </trkpt>
      <trkpt lat="46.90181" lon="-1.04087">
        <ele>122</ele>
        <time>2010-01-01T07:19:53Z</time>
      </trkpt>
      <trkpt lat="46.90146" lon="-1.04001">
        <ele>125</ele>
        <time>2010-01-01T07:20:20Z</time>
      </trkpt>
      <trkpt lat="46.90006" lon="-1.03911">
        <ele>128</ele>
        <time>2010-01-01T07:21:22Z</time>
      </trkpt>
      <trkpt lat="46.89835" lon="-1.03791">
        <ele>128</ele>
        <time>2010-01-01T07:22:38Z</time>
      </trkpt>
      <trkpt lat="46.89381" lon="-1.03447">
        <ele>126</ele>
        <time>2010-01-01T07:26:02Z</time>
      </trkpt>
      <trkpt lat="46.89126" lon="-1.03254">
        <ele>122</ele>
        <time>2010-01-01T07:27:57Z</time>
      </trkpt>
      <trkpt lat="46.8895" lon="-1.03121">
        <ele>124</ele>
        <time>2010-01-01T07:29:17Z</time>
      </trkpt>
      <trkpt lat="46.8883" lon="-1.03108">
        <ele>122</ele>
        <time>2010-01-01T07:30:05Z</time>
      </trkpt>
      <trkpt lat="46.88756" lon="-1.02962">
        <ele>126</ele>
        <time>2010-01-01T07:30:54Z</time>
      </trkpt>
      <trkpt lat="46.88636" lon="-1.02883">
        <ele>126</ele>
        <time>2010-01-01T07:31:47Z</time>
      </trkpt>
      <trkpt lat="46.88473" lon="-1.02744">
        <ele>125</ele>
        <time>2010-01-01T07:33:03Z</time>
      </trkpt>
      <trkpt lat="46.88394" lon="-1.02696">
        <ele>122</ele>
        <time>2010-01-01T07:33:37Z</time>
      </trkpt>
      <trkpt lat="46.88305" lon="-1.02632">
        <ele>121</ele>
        <time>2010-01-01T07:34:17Z</time>
      </trkpt>
      <trkpt lat="46.88195" lon="-1.02508">
        <ele>121</ele>
        <time>2010-01-01T07:35:13Z</time>
      </trkpt>
      <trkpt lat="46.88174" lon="-1.02523">
        <ele>121</ele>
        <time>2010-01-01T07:35:22Z</time>
      </trkpt>
      <trkpt lat="46.88112" lon="-1.02484">
        <ele>120</ele>
        <time>2010-01-01T07:35:49Z</time>
      </trkpt>
      <trkpt lat="46.87891" lon="-1.02312">
        <ele>119</ele>
        <time>2010-01-01T07:37:29Z</time>
      </trkpt>
      <trkpt lat="46.8785" lon="-1.02278">
        <ele>120</ele>
        <time>2010-01-01T07:37:48Z</time>
      </trkpt>
      <trkpt lat="46.87784" lon="-1.02231">
        <ele>119</ele>
        <time>2010-01-01T07:38:17Z</time>
      </trkpt>
      <trkpt lat="46.87687" lon="-1.02151">
        <ele>116</ele>
        <time>2010-01-01T07:39:02Z</time>
      </trkpt>
      <trkpt lat="46.87615" lon="-1.02108">
        <ele>118</ele>
        <time>2010-01-01T07:39:33Z</time>
      </trkpt>
      <trkpt lat="46.87533" lon="-1.02029">
        <ele>113</ele>
        <time>2010-01-01T07:40:12Z</time>
      </trkpt>
      <trkpt lat="46.87376" lon="-1.0192">
        <ele>110</ele>
        <time>2010-01-01T07:41:22Z</time>
      </trkpt>
      <trkpt lat="46.87231" lon="-1.01817">
        <ele>114</ele>
        <time>2010-01-01T07:42:26Z</time>
      </trkpt>
      <trkpt lat="46.8709" lon="-1.01716">
        <ele>112</ele>
        <time>2010-01-01T07:43:29Z</time>
      </trkpt>
      <trkpt lat="46.87076" lon="-1.01715">
        <ele>112</ele>
        <time>2010-01-01T07:43:35Z</time>
      </trkpt>
      <trkpt lat="46.87082" lon="-1.01671">
        <ele>112</ele>
        <time>2010-01-01T07:43:47Z</time>
      </trkpt>
      <trkpt lat="46.871" lon="-1.01562">
        <ele>110</ele>
        <time>2010-01-01T07:44:18Z</time>
      </trkpt>
      <trkpt lat="46.87118" lon="-1.01349">
        <ele>109</ele>
        <time>2010-01-01T07:45:16Z</time>
      </trkpt>
      <trkpt lat="46.87087" lon="-1.01207">
        <ele>105</ele>
        <time>2010-01-01T07:45:57Z</time>
      </trkpt>
      <trkpt lat="46.87048" lon="-1.01066">
        <ele>103</ele>
        <time>2010-01-01T07:46:39Z</time>
      </trkpt>
      <trkpt lat="46.86995" lon="-1.009">
        <ele>104</ele>
        <time>2010-01-01T07:47:29Z</time>
      </trkpt>
      <trkpt lat="46.86955" lon="-1.00682">
        <ele>110</ele>
        <time>2010-01-01T07:48:31Z</time>
      </trkpt>
      <trkpt lat="46.86921" lon="-1.00658">
        <ele>111</ele>
        <time>2010-01-01T07:48:46Z</time>
      </trkpt>
      <trkpt lat="46.86935" lon="-1.0066">
        <ele>111</ele>
        <time>2010-01-01T07:48:51Z</time>
      </trkpt>
      <trkpt lat="46.86905" lon="-1.00654">
        <ele>111</ele>
        <time>2010-01-01T07:49:03Z</time>
      </trkpt>
      <trkpt lat="46.86827" lon="-1.00632">
        <ele>113</ele>
        <time>2010-01-01T07:49:35Z</time>
      </trkpt>
      <trkpt lat="46.86794" lon="-1.00636">
        <ele>112</ele>
        <time>2010-01-01T07:49:48Z</time>
      </trkpt>
      <trkpt lat="46.86754" lon="-1.00656">
        <ele>111</ele>
        <time>2010-01-01T07:50:05Z</time>
      </trkpt>
      <trkpt lat="46.86715" lon="-1.00669">
        <ele>112</ele>
        <time>2010-01-01T07:50:21Z</time>
      </trkpt>
      <trkpt lat="46.86521" lon="-1.00579">
        <ele>118</ele>
        <time>2010-01-01T07:51:43Z</time>
      </trkpt>
      <trkpt lat="46.86522" lon="-1.00533">
        <ele>120</ele>
        <time>2010-01-01T07:51:55Z</time>
      </trkpt>
    </trkseg>
  </trk>
</gpx>